<?xml version="1.0" encoding="UTF-8" standalone="no" ?>
<gpx xmlns="http://www.topografix.com/GPX/1/1" xmlns:xsi="http://www.w3.org/2001/XMLSchema-instance" xsi:schemaLocation="http://www.topografix.com/GPX/1/1 http://www.topografix.com/GPX/1/1/gpx.xsd" version="1.1" creator="VisuGPX - https://www.visugpx.com">
  <metadata>
    <name>Moissey - Montmirey-le-Château</name>
    <desc><![CDATA[Randonnée effectuée le 15 janvier 2018]]></desc>
  </metadata>
  <trk>
    <name><![CDATA[15 janv. 2018 à 09:05:17]]></name>
    <cmt><![CDATA[15 janv. 2018 à 09:05:17]]></cmt>
    <trkseg>
      <trkpt lat="47.19624" lon="5.52442">
        <ele>239</ele>
        <time>2018-01-15T08:05:17Z</time>
      </trkpt>
      <trkpt lat="47.19622" lon="5.52432">
        <ele>239</ele>
        <time>2018-01-15T08:05:34Z</time>
      </trkpt>
      <trkpt lat="47.19622" lon="5.52435">
        <ele>239</ele>
        <time>2018-01-15T08:05:56Z</time>
      </trkpt>
      <trkpt lat="47.19622" lon="5.52443">
        <ele>239</ele>
        <time>2018-01-15T08:06:00Z</time>
      </trkpt>
      <trkpt lat="47.19623" lon="5.52457">
        <ele>239</ele>
        <time>2018-01-15T08:06:08Z</time>
      </trkpt>
      <trkpt lat="47.1963" lon="5.52494">
        <ele>241</ele>
        <time>2018-01-15T08:06:31Z</time>
      </trkpt>
      <trkpt lat="47.19641" lon="5.5251">
        <ele>241</ele>
        <time>2018-01-15T08:06:44Z</time>
      </trkpt>
      <trkpt lat="47.19653" lon="5.52519">
        <ele>241</ele>
        <time>2018-01-15T08:06:56Z</time>
      </trkpt>
      <trkpt lat="47.19658" lon="5.52518">
        <ele>241</ele>
        <time>2018-01-15T08:07:00Z</time>
      </trkpt>
      <trkpt lat="47.19663" lon="5.5252">
        <ele>241</ele>
        <time>2018-01-15T08:07:05Z</time>
      </trkpt>
      <trkpt lat="47.19665" lon="5.52527">
        <ele>242</ele>
        <time>2018-01-15T08:07:11Z</time>
      </trkpt>
      <trkpt lat="47.19665" lon="5.52534">
        <ele>241</ele>
        <time>2018-01-15T08:07:15Z</time>
      </trkpt>
      <trkpt lat="47.19664" lon="5.52542">
        <ele>242</ele>
        <time>2018-01-15T08:07:20Z</time>
      </trkpt>
      <trkpt lat="47.19666" lon="5.52557">
        <ele>243</ele>
        <time>2018-01-15T08:07:29Z</time>
      </trkpt>
      <trkpt lat="47.19666" lon="5.5258">
        <ele>244</ele>
        <time>2018-01-15T08:07:43Z</time>
      </trkpt>
      <trkpt lat="47.19666" lon="5.52595">
        <ele>245</ele>
        <time>2018-01-15T08:07:53Z</time>
      </trkpt>
      <trkpt lat="47.19667" lon="5.52602">
        <ele>246</ele>
        <time>2018-01-15T08:07:58Z</time>
      </trkpt>
      <trkpt lat="47.19669" lon="5.52609">
        <ele>246</ele>
        <time>2018-01-15T08:08:03Z</time>
      </trkpt>
      <trkpt lat="47.19681" lon="5.52644">
        <ele>248</ele>
        <time>2018-01-15T08:08:27Z</time>
      </trkpt>
      <trkpt lat="47.19683" lon="5.52651">
        <ele>248</ele>
        <time>2018-01-15T08:08:31Z</time>
      </trkpt>
      <trkpt lat="47.19681" lon="5.52657">
        <ele>249</ele>
        <time>2018-01-15T08:08:36Z</time>
      </trkpt>
      <trkpt lat="47.19676" lon="5.52669">
        <ele>250</ele>
        <time>2018-01-15T08:08:47Z</time>
      </trkpt>
      <trkpt lat="47.19665" lon="5.52696">
        <ele>252</ele>
        <time>2018-01-15T08:09:07Z</time>
      </trkpt>
      <trkpt lat="47.19666" lon="5.52703">
        <ele>253</ele>
        <time>2018-01-15T08:09:13Z</time>
      </trkpt>
      <trkpt lat="47.1967" lon="5.52706">
        <ele>253</ele>
        <time>2018-01-15T08:09:18Z</time>
      </trkpt>
      <trkpt lat="47.19675" lon="5.52708">
        <ele>253</ele>
        <time>2018-01-15T08:09:22Z</time>
      </trkpt>
      <trkpt lat="47.19708" lon="5.52741">
        <ele>256</ele>
        <time>2018-01-15T08:09:57Z</time>
      </trkpt>
      <trkpt lat="47.19713" lon="5.52744">
        <ele>256</ele>
        <time>2018-01-15T08:10:02Z</time>
      </trkpt>
      <trkpt lat="47.19716" lon="5.52749">
        <ele>256</ele>
        <time>2018-01-15T08:10:07Z</time>
      </trkpt>
      <trkpt lat="47.19722" lon="5.52786">
        <ele>259</ele>
        <time>2018-01-15T08:10:26Z</time>
      </trkpt>
      <trkpt lat="47.19732" lon="5.52819">
        <ele>260</ele>
        <time>2018-01-15T08:10:48Z</time>
      </trkpt>
      <trkpt lat="47.19739" lon="5.52837">
        <ele>261</ele>
        <time>2018-01-15T08:11:00Z</time>
      </trkpt>
      <trkpt lat="47.19758" lon="5.52891">
        <ele>262</ele>
        <time>2018-01-15T08:11:33Z</time>
      </trkpt>
      <trkpt lat="47.19765" lon="5.5292">
        <ele>262</ele>
        <time>2018-01-15T08:11:51Z</time>
      </trkpt>
      <trkpt lat="47.19772" lon="5.52964">
        <ele>263</ele>
        <time>2018-01-15T08:12:17Z</time>
      </trkpt>
      <trkpt lat="47.19773" lon="5.52979">
        <ele>262</ele>
        <time>2018-01-15T08:12:25Z</time>
      </trkpt>
      <trkpt lat="47.19773" lon="5.52987">
        <ele>262</ele>
        <time>2018-01-15T08:12:29Z</time>
      </trkpt>
      <trkpt lat="47.19774" lon="5.53002">
        <ele>263</ele>
        <time>2018-01-15T08:12:37Z</time>
      </trkpt>
      <trkpt lat="47.19774" lon="5.5301">
        <ele>262</ele>
        <time>2018-01-15T08:12:42Z</time>
      </trkpt>
      <trkpt lat="47.19775" lon="5.53018">
        <ele>262</ele>
        <time>2018-01-15T08:12:47Z</time>
      </trkpt>
      <trkpt lat="47.19775" lon="5.53033">
        <ele>262</ele>
        <time>2018-01-15T08:12:55Z</time>
      </trkpt>
      <trkpt lat="47.19782" lon="5.5307">
        <ele>264</ele>
        <time>2018-01-15T08:13:15Z</time>
      </trkpt>
      <trkpt lat="47.19784" lon="5.53076">
        <ele>265</ele>
        <time>2018-01-15T08:13:19Z</time>
      </trkpt>
      <trkpt lat="47.19801" lon="5.53122">
        <ele>266</ele>
        <time>2018-01-15T08:13:47Z</time>
      </trkpt>
      <trkpt lat="47.19827" lon="5.53155">
        <ele>267</ele>
        <time>2018-01-15T08:14:15Z</time>
      </trkpt>
      <trkpt lat="47.19862" lon="5.53187">
        <ele>268</ele>
        <time>2018-01-15T08:14:48Z</time>
      </trkpt>
      <trkpt lat="47.19866" lon="5.5319">
        <ele>267</ele>
        <time>2018-01-15T08:14:52Z</time>
      </trkpt>
      <trkpt lat="47.19879" lon="5.532">
        <ele>268</ele>
        <time>2018-01-15T08:15:04Z</time>
      </trkpt>
      <trkpt lat="47.19916" lon="5.53226">
        <ele>272</ele>
        <time>2018-01-15T08:15:36Z</time>
      </trkpt>
      <trkpt lat="47.19921" lon="5.53227">
        <ele>272</ele>
        <time>2018-01-15T08:15:40Z</time>
      </trkpt>
      <trkpt lat="47.19926" lon="5.53229">
        <ele>272</ele>
        <time>2018-01-15T08:15:44Z</time>
      </trkpt>
      <trkpt lat="47.19961" lon="5.53252">
        <ele>273</ele>
        <time>2018-01-15T08:16:16Z</time>
      </trkpt>
      <trkpt lat="47.19966" lon="5.53255">
        <ele>273</ele>
        <time>2018-01-15T08:16:20Z</time>
      </trkpt>
      <trkpt lat="47.19983" lon="5.53274">
        <ele>274</ele>
        <time>2018-01-15T08:16:36Z</time>
      </trkpt>
      <trkpt lat="47.19993" lon="5.53291">
        <ele>275</ele>
        <time>2018-01-15T08:16:48Z</time>
      </trkpt>
      <trkpt lat="47.19999" lon="5.53302">
        <ele>275</ele>
        <time>2018-01-15T08:16:56Z</time>
      </trkpt>
      <trkpt lat="47.20002" lon="5.53308">
        <ele>275</ele>
        <time>2018-01-15T08:17:00Z</time>
      </trkpt>
      <trkpt lat="47.20004" lon="5.53315">
        <ele>275</ele>
        <time>2018-01-15T08:17:04Z</time>
      </trkpt>
      <trkpt lat="47.20005" lon="5.53322">
        <ele>275</ele>
        <time>2018-01-15T08:17:08Z</time>
      </trkpt>
      <trkpt lat="47.20008" lon="5.53343">
        <ele>276</ele>
        <time>2018-01-15T08:17:20Z</time>
      </trkpt>
      <trkpt lat="47.20014" lon="5.53393">
        <ele>279</ele>
        <time>2018-01-15T08:17:48Z</time>
      </trkpt>
      <trkpt lat="47.20026" lon="5.53443">
        <ele>277</ele>
        <time>2018-01-15T08:18:16Z</time>
      </trkpt>
      <trkpt lat="47.20028" lon="5.5345">
        <ele>277</ele>
        <time>2018-01-15T08:18:20Z</time>
      </trkpt>
      <trkpt lat="47.2003" lon="5.53457">
        <ele>276</ele>
        <time>2018-01-15T08:18:24Z</time>
      </trkpt>
      <trkpt lat="47.20048" lon="5.53511">
        <ele>279</ele>
        <time>2018-01-15T08:18:56Z</time>
      </trkpt>
      <trkpt lat="47.2005" lon="5.53517">
        <ele>279</ele>
        <time>2018-01-15T08:19:00Z</time>
      </trkpt>
      <trkpt lat="47.20069" lon="5.53569">
        <ele>283</ele>
        <time>2018-01-15T08:19:33Z</time>
      </trkpt>
      <trkpt lat="47.20072" lon="5.53576">
        <ele>284</ele>
        <time>2018-01-15T08:19:37Z</time>
      </trkpt>
      <trkpt lat="47.20088" lon="5.53628">
        <ele>285</ele>
        <time>2018-01-15T08:20:09Z</time>
      </trkpt>
      <trkpt lat="47.2009" lon="5.53635">
        <ele>285</ele>
        <time>2018-01-15T08:20:13Z</time>
      </trkpt>
      <trkpt lat="47.20092" lon="5.53641">
        <ele>286</ele>
        <time>2018-01-15T08:20:17Z</time>
      </trkpt>
      <trkpt lat="47.20094" lon="5.53647">
        <ele>286</ele>
        <time>2018-01-15T08:20:21Z</time>
      </trkpt>
      <trkpt lat="47.20105" lon="5.5368">
        <ele>285</ele>
        <time>2018-01-15T08:20:41Z</time>
      </trkpt>
      <trkpt lat="47.2011" lon="5.53709">
        <ele>285</ele>
        <time>2018-01-15T08:20:57Z</time>
      </trkpt>
      <trkpt lat="47.20113" lon="5.53738">
        <ele>287</ele>
        <time>2018-01-15T08:21:14Z</time>
      </trkpt>
      <trkpt lat="47.20116" lon="5.5376">
        <ele>288</ele>
        <time>2018-01-15T08:21:26Z</time>
      </trkpt>
      <trkpt lat="47.20118" lon="5.53781">
        <ele>287</ele>
        <time>2018-01-15T08:21:38Z</time>
      </trkpt>
      <trkpt lat="47.2012" lon="5.53795">
        <ele>288</ele>
        <time>2018-01-15T08:21:46Z</time>
      </trkpt>
      <trkpt lat="47.20126" lon="5.53824">
        <ele>292</ele>
        <time>2018-01-15T08:22:03Z</time>
      </trkpt>
      <trkpt lat="47.20131" lon="5.53837">
        <ele>294</ele>
        <time>2018-01-15T08:22:11Z</time>
      </trkpt>
      <trkpt lat="47.20137" lon="5.53849">
        <ele>295</ele>
        <time>2018-01-15T08:22:19Z</time>
      </trkpt>
      <trkpt lat="47.20152" lon="5.53867">
        <ele>296</ele>
        <time>2018-01-15T08:22:36Z</time>
      </trkpt>
      <trkpt lat="47.20159" lon="5.53876">
        <ele>296</ele>
        <time>2018-01-15T08:22:44Z</time>
      </trkpt>
      <trkpt lat="47.2017" lon="5.53892">
        <ele>297</ele>
        <time>2018-01-15T08:22:56Z</time>
      </trkpt>
      <trkpt lat="47.2018" lon="5.53908">
        <ele>300</ele>
        <time>2018-01-15T08:23:08Z</time>
      </trkpt>
      <trkpt lat="47.20198" lon="5.53943">
        <ele>304</ele>
        <time>2018-01-15T08:23:33Z</time>
      </trkpt>
      <trkpt lat="47.20209" lon="5.53955">
        <ele>304</ele>
        <time>2018-01-15T08:23:45Z</time>
      </trkpt>
      <trkpt lat="47.20219" lon="5.53962">
        <ele>305</ele>
        <time>2018-01-15T08:23:54Z</time>
      </trkpt>
      <trkpt lat="47.20222" lon="5.53969">
        <ele>305</ele>
        <time>2018-01-15T08:23:58Z</time>
      </trkpt>
      <trkpt lat="47.20223" lon="5.53975">
        <ele>306</ele>
        <time>2018-01-15T08:24:02Z</time>
      </trkpt>
      <trkpt lat="47.20203" lon="5.5401">
        <ele>309</ele>
        <time>2018-01-15T08:24:32Z</time>
      </trkpt>
      <trkpt lat="47.20196" lon="5.54019">
        <ele>309</ele>
        <time>2018-01-15T08:24:40Z</time>
      </trkpt>
      <trkpt lat="47.20192" lon="5.54024">
        <ele>309</ele>
        <time>2018-01-15T08:24:44Z</time>
      </trkpt>
      <trkpt lat="47.20184" lon="5.54032">
        <ele>309</ele>
        <time>2018-01-15T08:24:52Z</time>
      </trkpt>
      <trkpt lat="47.2018" lon="5.54035">
        <ele>308</ele>
        <time>2018-01-15T08:24:56Z</time>
      </trkpt>
      <trkpt lat="47.20171" lon="5.54043">
        <ele>308</ele>
        <time>2018-01-15T08:25:04Z</time>
      </trkpt>
      <trkpt lat="47.20167" lon="5.54047">
        <ele>308</ele>
        <time>2018-01-15T08:25:08Z</time>
      </trkpt>
      <trkpt lat="47.20155" lon="5.54058">
        <ele>305</ele>
        <time>2018-01-15T08:25:23Z</time>
      </trkpt>
      <trkpt lat="47.20147" lon="5.54067">
        <ele>304</ele>
        <time>2018-01-15T08:25:33Z</time>
      </trkpt>
      <trkpt lat="47.20143" lon="5.5407">
        <ele>305</ele>
        <time>2018-01-15T08:25:37Z</time>
      </trkpt>
      <trkpt lat="47.20138" lon="5.54073">
        <ele>304</ele>
        <time>2018-01-15T08:25:42Z</time>
      </trkpt>
      <trkpt lat="47.20107" lon="5.54099">
        <ele>299</ele>
        <time>2018-01-15T08:26:14Z</time>
      </trkpt>
      <trkpt lat="47.20099" lon="5.54107">
        <ele>299</ele>
        <time>2018-01-15T08:26:23Z</time>
      </trkpt>
      <trkpt lat="47.20095" lon="5.54117">
        <ele>298</ele>
        <time>2018-01-15T08:27:04Z</time>
      </trkpt>
      <trkpt lat="47.20099" lon="5.54131">
        <ele>297</ele>
        <time>2018-01-15T08:27:12Z</time>
      </trkpt>
      <trkpt lat="47.20111" lon="5.54157">
        <ele>299</ele>
        <time>2018-01-15T08:27:31Z</time>
      </trkpt>
      <trkpt lat="47.20115" lon="5.54171">
        <ele>299</ele>
        <time>2018-01-15T08:27:39Z</time>
      </trkpt>
      <trkpt lat="47.20121" lon="5.54184">
        <ele>300</ele>
        <time>2018-01-15T08:27:47Z</time>
      </trkpt>
      <trkpt lat="47.20133" lon="5.54216">
        <ele>303</ele>
        <time>2018-01-15T08:28:09Z</time>
      </trkpt>
      <trkpt lat="47.20139" lon="5.54229">
        <ele>303</ele>
        <time>2018-01-15T08:28:18Z</time>
      </trkpt>
      <trkpt lat="47.20149" lon="5.54247">
        <ele>306</ele>
        <time>2018-01-15T08:28:32Z</time>
      </trkpt>
      <trkpt lat="47.20153" lon="5.54251">
        <ele>307</ele>
        <time>2018-01-15T08:28:37Z</time>
      </trkpt>
      <trkpt lat="47.20177" lon="5.54296">
        <ele>314</ele>
        <time>2018-01-15T08:29:09Z</time>
      </trkpt>
      <trkpt lat="47.20189" lon="5.54308">
        <ele>317</ele>
        <time>2018-01-15T08:29:22Z</time>
      </trkpt>
      <trkpt lat="47.20193" lon="5.54313">
        <ele>317</ele>
        <time>2018-01-15T08:29:27Z</time>
      </trkpt>
      <trkpt lat="47.20214" lon="5.54334">
        <ele>319</ele>
        <time>2018-01-15T08:29:52Z</time>
      </trkpt>
      <trkpt lat="47.20223" lon="5.54339">
        <ele>320</ele>
        <time>2018-01-15T08:30:02Z</time>
      </trkpt>
      <trkpt lat="47.20228" lon="5.54343">
        <ele>320</ele>
        <time>2018-01-15T08:30:07Z</time>
      </trkpt>
      <trkpt lat="47.20233" lon="5.54346">
        <ele>321</ele>
        <time>2018-01-15T08:32:14Z</time>
      </trkpt>
      <trkpt lat="47.20243" lon="5.54348">
        <ele>322</ele>
        <time>2018-01-15T08:32:22Z</time>
      </trkpt>
      <trkpt lat="47.20253" lon="5.54355">
        <ele>324</ele>
        <time>2018-01-15T08:32:33Z</time>
      </trkpt>
      <trkpt lat="47.20256" lon="5.54362">
        <ele>325</ele>
        <time>2018-01-15T08:32:39Z</time>
      </trkpt>
      <trkpt lat="47.20262" lon="5.54375">
        <ele>325</ele>
        <time>2018-01-15T08:32:46Z</time>
      </trkpt>
      <trkpt lat="47.20266" lon="5.54381">
        <ele>325</ele>
        <time>2018-01-15T08:32:50Z</time>
      </trkpt>
      <trkpt lat="47.20281" lon="5.54401">
        <ele>326</ele>
        <time>2018-01-15T08:33:06Z</time>
      </trkpt>
      <trkpt lat="47.20296" lon="5.54421">
        <ele>326</ele>
        <time>2018-01-15T08:33:24Z</time>
      </trkpt>
      <trkpt lat="47.2031" lon="5.5444">
        <ele>328</ele>
        <time>2018-01-15T08:33:41Z</time>
      </trkpt>
      <trkpt lat="47.2033" lon="5.54488">
        <ele>331</ele>
        <time>2018-01-15T08:34:12Z</time>
      </trkpt>
      <trkpt lat="47.20331" lon="5.54495">
        <ele>332</ele>
        <time>2018-01-15T08:34:16Z</time>
      </trkpt>
      <trkpt lat="47.20335" lon="5.54516">
        <ele>331</ele>
        <time>2018-01-15T08:34:29Z</time>
      </trkpt>
      <trkpt lat="47.20337" lon="5.54529">
        <ele>331</ele>
        <time>2018-01-15T08:34:37Z</time>
      </trkpt>
      <trkpt lat="47.20342" lon="5.54542">
        <ele>332</ele>
        <time>2018-01-15T08:34:46Z</time>
      </trkpt>
      <trkpt lat="47.20344" lon="5.54548">
        <ele>333</ele>
        <time>2018-01-15T08:34:50Z</time>
      </trkpt>
      <trkpt lat="47.20358" lon="5.54572">
        <ele>335</ele>
        <time>2018-01-15T08:35:07Z</time>
      </trkpt>
      <trkpt lat="47.20362" lon="5.54576">
        <ele>335</ele>
        <time>2018-01-15T08:35:11Z</time>
      </trkpt>
      <trkpt lat="47.20372" lon="5.54594">
        <ele>336</ele>
        <time>2018-01-15T08:35:23Z</time>
      </trkpt>
      <trkpt lat="47.20379" lon="5.54603">
        <ele>336</ele>
        <time>2018-01-15T08:35:32Z</time>
      </trkpt>
      <trkpt lat="47.20392" lon="5.54614">
        <ele>336</ele>
        <time>2018-01-15T08:35:44Z</time>
      </trkpt>
      <trkpt lat="47.20406" lon="5.54627">
        <ele>337</ele>
        <time>2018-01-15T08:35:56Z</time>
      </trkpt>
      <trkpt lat="47.20409" lon="5.54632">
        <ele>337</ele>
        <time>2018-01-15T08:36:00Z</time>
      </trkpt>
      <trkpt lat="47.20413" lon="5.54637">
        <ele>337</ele>
        <time>2018-01-15T08:36:04Z</time>
      </trkpt>
      <trkpt lat="47.20415" lon="5.54644">
        <ele>337</ele>
        <time>2018-01-15T08:36:08Z</time>
      </trkpt>
      <trkpt lat="47.20422" lon="5.54672">
        <ele>335</ele>
        <time>2018-01-15T08:36:24Z</time>
      </trkpt>
      <trkpt lat="47.20436" lon="5.54696">
        <ele>334</ele>
        <time>2018-01-15T08:36:40Z</time>
      </trkpt>
      <trkpt lat="47.2044" lon="5.547">
        <ele>334</ele>
        <time>2018-01-15T08:36:44Z</time>
      </trkpt>
      <trkpt lat="47.20444" lon="5.54704">
        <ele>334</ele>
        <time>2018-01-15T08:36:49Z</time>
      </trkpt>
      <trkpt lat="47.20449" lon="5.54707">
        <ele>334</ele>
        <time>2018-01-15T08:36:54Z</time>
      </trkpt>
      <trkpt lat="47.20455" lon="5.54708">
        <ele>333</ele>
        <time>2018-01-15T08:36:58Z</time>
      </trkpt>
      <trkpt lat="47.20476" lon="5.54711">
        <ele>331</ele>
        <time>2018-01-15T08:37:16Z</time>
      </trkpt>
      <trkpt lat="47.20486" lon="5.54715">
        <ele>331</ele>
        <time>2018-01-15T08:37:23Z</time>
      </trkpt>
      <trkpt lat="47.20502" lon="5.54718">
        <ele>330</ele>
        <time>2018-01-15T08:37:35Z</time>
      </trkpt>
      <trkpt lat="47.20512" lon="5.54716">
        <ele>329</ele>
        <time>2018-01-15T08:37:45Z</time>
      </trkpt>
      <trkpt lat="47.20523" lon="5.54713">
        <ele>329</ele>
        <time>2018-01-15T08:37:54Z</time>
      </trkpt>
      <trkpt lat="47.20546" lon="5.54698">
        <ele>329</ele>
        <time>2018-01-15T08:38:14Z</time>
      </trkpt>
      <trkpt lat="47.20561" lon="5.54692">
        <ele>331</ele>
        <time>2018-01-15T08:38:26Z</time>
      </trkpt>
      <trkpt lat="47.2057" lon="5.54691">
        <ele>331</ele>
        <time>2018-01-15T08:38:34Z</time>
      </trkpt>
      <trkpt lat="47.20575" lon="5.5469">
        <ele>331</ele>
        <time>2018-01-15T08:38:38Z</time>
      </trkpt>
      <trkpt lat="47.2058" lon="5.54691">
        <ele>331</ele>
        <time>2018-01-15T08:38:42Z</time>
      </trkpt>
      <trkpt lat="47.2059" lon="5.54691">
        <ele>330</ele>
        <time>2018-01-15T08:38:50Z</time>
      </trkpt>
      <trkpt lat="47.20595" lon="5.54695">
        <ele>330</ele>
        <time>2018-01-15T08:38:55Z</time>
      </trkpt>
      <trkpt lat="47.20609" lon="5.54719">
        <ele>329</ele>
        <time>2018-01-15T08:39:11Z</time>
      </trkpt>
      <trkpt lat="47.20612" lon="5.54724">
        <ele>329</ele>
        <time>2018-01-15T08:39:15Z</time>
      </trkpt>
      <trkpt lat="47.20623" lon="5.54741">
        <ele>330</ele>
        <time>2018-01-15T08:39:27Z</time>
      </trkpt>
      <trkpt lat="47.20628" lon="5.54739">
        <ele>331</ele>
        <time>2018-01-15T08:39:32Z</time>
      </trkpt>
      <trkpt lat="47.20631" lon="5.54734">
        <ele>331</ele>
        <time>2018-01-15T08:39:35Z</time>
      </trkpt>
      <trkpt lat="47.20641" lon="5.547">
        <ele>329</ele>
        <time>2018-01-15T08:39:55Z</time>
      </trkpt>
      <trkpt lat="47.20643" lon="5.54693">
        <ele>329</ele>
        <time>2018-01-15T08:39:59Z</time>
      </trkpt>
      <trkpt lat="47.20655" lon="5.54663">
        <ele>332</ele>
        <time>2018-01-15T08:40:19Z</time>
      </trkpt>
      <trkpt lat="47.2067" lon="5.54644">
        <ele>330</ele>
        <time>2018-01-15T08:40:35Z</time>
      </trkpt>
      <trkpt lat="47.2068" lon="5.54627">
        <ele>328</ele>
        <time>2018-01-15T08:40:47Z</time>
      </trkpt>
      <trkpt lat="47.20683" lon="5.54621">
        <ele>328</ele>
        <time>2018-01-15T08:40:51Z</time>
      </trkpt>
      <trkpt lat="47.20705" lon="5.54579">
        <ele>323</ele>
        <time>2018-01-15T08:41:23Z</time>
      </trkpt>
      <trkpt lat="47.20709" lon="5.54575">
        <ele>323</ele>
        <time>2018-01-15T08:41:28Z</time>
      </trkpt>
      <trkpt lat="47.20716" lon="5.54565">
        <ele>323</ele>
        <time>2018-01-15T08:41:36Z</time>
      </trkpt>
      <trkpt lat="47.20718" lon="5.54559">
        <ele>323</ele>
        <time>2018-01-15T08:41:40Z</time>
      </trkpt>
      <trkpt lat="47.20735" lon="5.54513">
        <ele>318</ele>
        <time>2018-01-15T08:42:11Z</time>
      </trkpt>
      <trkpt lat="47.20749" lon="5.54465">
        <ele>309</ele>
        <time>2018-01-15T08:42:44Z</time>
      </trkpt>
      <trkpt lat="47.20751" lon="5.54457">
        <ele>308</ele>
        <time>2018-01-15T08:42:49Z</time>
      </trkpt>
      <trkpt lat="47.20753" lon="5.5445">
        <ele>306</ele>
        <time>2018-01-15T08:42:54Z</time>
      </trkpt>
      <trkpt lat="47.2076" lon="5.54428">
        <ele>305</ele>
        <time>2018-01-15T08:43:08Z</time>
      </trkpt>
      <trkpt lat="47.20762" lon="5.54422">
        <ele>305</ele>
        <time>2018-01-15T08:43:12Z</time>
      </trkpt>
      <trkpt lat="47.20765" lon="5.54416">
        <ele>304</ele>
        <time>2018-01-15T08:43:16Z</time>
      </trkpt>
      <trkpt lat="47.20766" lon="5.5441">
        <ele>304</ele>
        <time>2018-01-15T08:43:20Z</time>
      </trkpt>
      <trkpt lat="47.20768" lon="5.54396">
        <ele>303</ele>
        <time>2018-01-15T08:43:28Z</time>
      </trkpt>
      <trkpt lat="47.20771" lon="5.5439">
        <ele>302</ele>
        <time>2018-01-15T08:43:32Z</time>
      </trkpt>
      <trkpt lat="47.208" lon="5.5435">
        <ele>294</ele>
        <time>2018-01-15T08:44:07Z</time>
      </trkpt>
      <trkpt lat="47.20816" lon="5.54321">
        <ele>292</ele>
        <time>2018-01-15T08:44:29Z</time>
      </trkpt>
      <trkpt lat="47.20826" lon="5.54307">
        <ele>291</ele>
        <time>2018-01-15T08:44:40Z</time>
      </trkpt>
      <trkpt lat="47.20847" lon="5.54275">
        <ele>287</ele>
        <time>2018-01-15T08:45:06Z</time>
      </trkpt>
      <trkpt lat="47.20852" lon="5.54262">
        <ele>285</ele>
        <time>2018-01-15T08:45:14Z</time>
      </trkpt>
      <trkpt lat="47.20856" lon="5.54256">
        <ele>284</ele>
        <time>2018-01-15T08:45:19Z</time>
      </trkpt>
      <trkpt lat="47.2086" lon="5.54253">
        <ele>284</ele>
        <time>2018-01-15T08:45:23Z</time>
      </trkpt>
      <trkpt lat="47.20865" lon="5.54253">
        <ele>283</ele>
        <time>2018-01-15T08:45:28Z</time>
      </trkpt>
      <trkpt lat="47.20869" lon="5.54257">
        <ele>283</ele>
        <time>2018-01-15T08:45:32Z</time>
      </trkpt>
      <trkpt lat="47.20873" lon="5.54263">
        <ele>282</ele>
        <time>2018-01-15T08:45:37Z</time>
      </trkpt>
      <trkpt lat="47.20899" lon="5.54308">
        <ele>280</ele>
        <time>2018-01-15T08:46:09Z</time>
      </trkpt>
      <trkpt lat="47.20904" lon="5.54309">
        <ele>279</ele>
        <time>2018-01-15T08:48:29Z</time>
      </trkpt>
      <trkpt lat="47.20908" lon="5.54313">
        <ele>278</ele>
        <time>2018-01-15T08:48:33Z</time>
      </trkpt>
      <trkpt lat="47.20911" lon="5.54319">
        <ele>278</ele>
        <time>2018-01-15T08:48:37Z</time>
      </trkpt>
      <trkpt lat="47.2092" lon="5.54327">
        <ele>278</ele>
        <time>2018-01-15T08:48:44Z</time>
      </trkpt>
      <trkpt lat="47.20924" lon="5.54332">
        <ele>278</ele>
        <time>2018-01-15T08:48:50Z</time>
      </trkpt>
      <trkpt lat="47.20938" lon="5.54364">
        <ele>279</ele>
        <time>2018-01-15T08:49:10Z</time>
      </trkpt>
      <trkpt lat="47.20968" lon="5.54408">
        <ele>283</ele>
        <time>2018-01-15T08:49:43Z</time>
      </trkpt>
      <trkpt lat="47.20996" lon="5.54448">
        <ele>287</ele>
        <time>2018-01-15T08:50:15Z</time>
      </trkpt>
      <trkpt lat="47.21" lon="5.54453">
        <ele>287</ele>
        <time>2018-01-15T08:50:19Z</time>
      </trkpt>
      <trkpt lat="47.21007" lon="5.54461">
        <ele>288</ele>
        <time>2018-01-15T08:50:27Z</time>
      </trkpt>
      <trkpt lat="47.2102" lon="5.54472">
        <ele>289</ele>
        <time>2018-01-15T08:50:40Z</time>
      </trkpt>
      <trkpt lat="47.21049" lon="5.54504">
        <ele>291</ele>
        <time>2018-01-15T08:51:10Z</time>
      </trkpt>
      <trkpt lat="47.21079" lon="5.54546">
        <ele>294</ele>
        <time>2018-01-15T08:51:43Z</time>
      </trkpt>
      <trkpt lat="47.21087" lon="5.54557">
        <ele>294</ele>
        <time>2018-01-15T08:51:52Z</time>
      </trkpt>
      <trkpt lat="47.21095" lon="5.54563">
        <ele>294</ele>
        <time>2018-01-15T08:52:00Z</time>
      </trkpt>
      <trkpt lat="47.211" lon="5.54564">
        <ele>294</ele>
        <time>2018-01-15T08:52:04Z</time>
      </trkpt>
      <trkpt lat="47.21102" lon="5.54558">
        <ele>294</ele>
        <time>2018-01-15T08:52:09Z</time>
      </trkpt>
      <trkpt lat="47.21102" lon="5.5455">
        <ele>295</ele>
        <time>2018-01-15T08:52:14Z</time>
      </trkpt>
      <trkpt lat="47.21104" lon="5.54508">
        <ele>294</ele>
        <time>2018-01-15T08:52:38Z</time>
      </trkpt>
      <trkpt lat="47.21115" lon="5.54448">
        <ele>293</ele>
        <time>2018-01-15T08:53:10Z</time>
      </trkpt>
      <trkpt lat="47.21126" lon="5.54396">
        <ele>291</ele>
        <time>2018-01-15T08:53:38Z</time>
      </trkpt>
      <trkpt lat="47.21129" lon="5.54351">
        <ele>290</ele>
        <time>2018-01-15T08:54:02Z</time>
      </trkpt>
      <trkpt lat="47.21126" lon="5.54329">
        <ele>288</ele>
        <time>2018-01-15T08:54:14Z</time>
      </trkpt>
      <trkpt lat="47.21116" lon="5.543">
        <ele>286</ele>
        <time>2018-01-15T08:54:30Z</time>
      </trkpt>
      <trkpt lat="47.21093" lon="5.54249">
        <ele>283</ele>
        <time>2018-01-15T08:55:02Z</time>
      </trkpt>
      <trkpt lat="47.21092" lon="5.54243">
        <ele>282</ele>
        <time>2018-01-15T08:55:05Z</time>
      </trkpt>
      <trkpt lat="47.21092" lon="5.54228">
        <ele>282</ele>
        <time>2018-01-15T08:55:12Z</time>
      </trkpt>
      <trkpt lat="47.21096" lon="5.54215">
        <ele>281</ele>
        <time>2018-01-15T08:55:19Z</time>
      </trkpt>
      <trkpt lat="47.21109" lon="5.5419">
        <ele>279</ele>
        <time>2018-01-15T08:55:35Z</time>
      </trkpt>
      <trkpt lat="47.21129" lon="5.54164">
        <ele>276</ele>
        <time>2018-01-15T08:55:57Z</time>
      </trkpt>
      <trkpt lat="47.21147" lon="5.54152">
        <ele>273</ele>
        <time>2018-01-15T08:56:15Z</time>
      </trkpt>
      <trkpt lat="47.21152" lon="5.54152">
        <ele>272</ele>
        <time>2018-01-15T08:56:19Z</time>
      </trkpt>
      <trkpt lat="47.21157" lon="5.54152">
        <ele>272</ele>
        <time>2018-01-15T08:56:23Z</time>
      </trkpt>
      <trkpt lat="47.21162" lon="5.54153">
        <ele>272</ele>
        <time>2018-01-15T08:56:27Z</time>
      </trkpt>
      <trkpt lat="47.21176" lon="5.54162">
        <ele>271</ele>
        <time>2018-01-15T08:56:39Z</time>
      </trkpt>
      <trkpt lat="47.21214" lon="5.54194">
        <ele>268</ele>
        <time>2018-01-15T08:57:13Z</time>
      </trkpt>
      <trkpt lat="47.21228" lon="5.54203">
        <ele>267</ele>
        <time>2018-01-15T08:57:25Z</time>
      </trkpt>
      <trkpt lat="47.21239" lon="5.54204">
        <ele>266</ele>
        <time>2018-01-15T08:57:33Z</time>
      </trkpt>
      <trkpt lat="47.21249" lon="5.54198">
        <ele>265</ele>
        <time>2018-01-15T08:57:41Z</time>
      </trkpt>
      <trkpt lat="47.21282" lon="5.54159">
        <ele>262</ele>
        <time>2018-01-15T08:58:13Z</time>
      </trkpt>
      <trkpt lat="47.21313" lon="5.54119">
        <ele>260</ele>
        <time>2018-01-15T08:58:44Z</time>
      </trkpt>
      <trkpt lat="47.21315" lon="5.54112">
        <ele>260</ele>
        <time>2018-01-15T08:58:50Z</time>
      </trkpt>
      <trkpt lat="47.21334" lon="5.5409">
        <ele>259</ele>
        <time>2018-01-15T08:59:10Z</time>
      </trkpt>
      <trkpt lat="47.21345" lon="5.54075">
        <ele>259</ele>
        <time>2018-01-15T08:59:24Z</time>
      </trkpt>
      <trkpt lat="47.2135" lon="5.54069">
        <ele>259</ele>
        <time>2018-01-15T09:00:18Z</time>
      </trkpt>
      <trkpt lat="47.21354" lon="5.54063">
        <ele>258</ele>
        <time>2018-01-15T09:00:23Z</time>
      </trkpt>
      <trkpt lat="47.21361" lon="5.54052">
        <ele>259</ele>
        <time>2018-01-15T09:00:31Z</time>
      </trkpt>
      <trkpt lat="47.21365" lon="5.54047">
        <ele>259</ele>
        <time>2018-01-15T09:00:35Z</time>
      </trkpt>
      <trkpt lat="47.21368" lon="5.54041">
        <ele>259</ele>
        <time>2018-01-15T09:00:39Z</time>
      </trkpt>
      <trkpt lat="47.21395" lon="5.53992">
        <ele>255</ele>
        <time>2018-01-15T09:01:10Z</time>
      </trkpt>
      <trkpt lat="47.21422" lon="5.53942">
        <ele>253</ele>
        <time>2018-01-15T09:01:42Z</time>
      </trkpt>
      <trkpt lat="47.21447" lon="5.53891">
        <ele>250</ele>
        <time>2018-01-15T09:02:14Z</time>
      </trkpt>
      <trkpt lat="47.21469" lon="5.53845">
        <ele>248</ele>
        <time>2018-01-15T09:02:42Z</time>
      </trkpt>
      <trkpt lat="47.21473" lon="5.53839">
        <ele>249</ele>
        <time>2018-01-15T09:02:46Z</time>
      </trkpt>
      <trkpt lat="47.21498" lon="5.53787">
        <ele>246</ele>
        <time>2018-01-15T09:03:19Z</time>
      </trkpt>
      <trkpt lat="47.21524" lon="5.53736">
        <ele>243</ele>
        <time>2018-01-15T09:03:51Z</time>
      </trkpt>
      <trkpt lat="47.2153" lon="5.53722">
        <ele>243</ele>
        <time>2018-01-15T09:03:59Z</time>
      </trkpt>
      <trkpt lat="47.21556" lon="5.53672">
        <ele>241</ele>
        <time>2018-01-15T09:04:31Z</time>
      </trkpt>
      <trkpt lat="47.21586" lon="5.53625">
        <ele>240</ele>
        <time>2018-01-15T09:05:03Z</time>
      </trkpt>
      <trkpt lat="47.21618" lon="5.53586">
        <ele>238</ele>
        <time>2018-01-15T09:05:34Z</time>
      </trkpt>
      <trkpt lat="47.21651" lon="5.53547">
        <ele>236</ele>
        <time>2018-01-15T09:06:06Z</time>
      </trkpt>
      <trkpt lat="47.21685" lon="5.53509">
        <ele>235</ele>
        <time>2018-01-15T09:06:38Z</time>
      </trkpt>
      <trkpt lat="47.21694" lon="5.535">
        <ele>235</ele>
        <time>2018-01-15T09:06:46Z</time>
      </trkpt>
      <trkpt lat="47.21731" lon="5.53472">
        <ele>234</ele>
        <time>2018-01-15T09:07:18Z</time>
      </trkpt>
      <trkpt lat="47.21751" lon="5.53463">
        <ele>233</ele>
        <time>2018-01-15T09:07:35Z</time>
      </trkpt>
      <trkpt lat="47.21792" lon="5.53459">
        <ele>233</ele>
        <time>2018-01-15T09:08:07Z</time>
      </trkpt>
      <trkpt lat="47.21808" lon="5.53461">
        <ele>233</ele>
        <time>2018-01-15T09:08:19Z</time>
      </trkpt>
      <trkpt lat="47.2185" lon="5.5346">
        <ele>232</ele>
        <time>2018-01-15T09:08:51Z</time>
      </trkpt>
      <trkpt lat="47.21892" lon="5.53464">
        <ele>232</ele>
        <time>2018-01-15T09:09:23Z</time>
      </trkpt>
      <trkpt lat="47.21919" lon="5.53458">
        <ele>232</ele>
        <time>2018-01-15T09:09:43Z</time>
      </trkpt>
      <trkpt lat="47.21937" lon="5.53445">
        <ele>232</ele>
        <time>2018-01-15T09:09:59Z</time>
      </trkpt>
      <trkpt lat="47.21941" lon="5.53441">
        <ele>232</ele>
        <time>2018-01-15T09:10:03Z</time>
      </trkpt>
      <trkpt lat="47.21945" lon="5.53436">
        <ele>232</ele>
        <time>2018-01-15T09:10:07Z</time>
      </trkpt>
      <trkpt lat="47.21954" lon="5.53428">
        <ele>233</ele>
        <time>2018-01-15T09:10:15Z</time>
      </trkpt>
      <trkpt lat="47.21957" lon="5.53422">
        <ele>233</ele>
        <time>2018-01-15T09:10:19Z</time>
      </trkpt>
      <trkpt lat="47.21963" lon="5.53409">
        <ele>232</ele>
        <time>2018-01-15T09:10:29Z</time>
      </trkpt>
      <trkpt lat="47.21972" lon="5.53392">
        <ele>232</ele>
        <time>2018-01-15T09:10:41Z</time>
      </trkpt>
      <trkpt lat="47.21977" lon="5.53363">
        <ele>232</ele>
        <time>2018-01-15T09:10:57Z</time>
      </trkpt>
      <trkpt lat="47.21977" lon="5.53334">
        <ele>232</ele>
        <time>2018-01-15T09:11:12Z</time>
      </trkpt>
      <trkpt lat="47.21973" lon="5.53313">
        <ele>232</ele>
        <time>2018-01-15T09:11:24Z</time>
      </trkpt>
      <trkpt lat="47.21965" lon="5.53292">
        <ele>232</ele>
        <time>2018-01-15T09:11:36Z</time>
      </trkpt>
      <trkpt lat="47.21945" lon="5.53237">
        <ele>233</ele>
        <time>2018-01-15T09:12:07Z</time>
      </trkpt>
      <trkpt lat="47.21937" lon="5.53179">
        <ele>234</ele>
        <time>2018-01-15T09:12:40Z</time>
      </trkpt>
      <trkpt lat="47.21932" lon="5.53167">
        <ele>235</ele>
        <time>2018-01-15T09:12:48Z</time>
      </trkpt>
      <trkpt lat="47.2193" lon="5.53161">
        <ele>235</ele>
        <time>2018-01-15T09:12:53Z</time>
      </trkpt>
      <trkpt lat="47.21926" lon="5.53155">
        <ele>234</ele>
        <time>2018-01-15T09:12:58Z</time>
      </trkpt>
      <trkpt lat="47.21923" lon="5.53149">
        <ele>234</ele>
        <time>2018-01-15T09:13:02Z</time>
      </trkpt>
      <trkpt lat="47.21902" lon="5.53118">
        <ele>235</ele>
        <time>2018-01-15T09:13:27Z</time>
      </trkpt>
      <trkpt lat="47.21897" lon="5.53115">
        <ele>236</ele>
        <time>2018-01-15T09:13:31Z</time>
      </trkpt>
      <trkpt lat="47.2189" lon="5.53104">
        <ele>236</ele>
        <time>2018-01-15T09:13:39Z</time>
      </trkpt>
      <trkpt lat="47.21886" lon="5.53099">
        <ele>236</ele>
        <time>2018-01-15T09:13:44Z</time>
      </trkpt>
      <trkpt lat="47.21881" lon="5.53094">
        <ele>236</ele>
        <time>2018-01-15T09:13:49Z</time>
      </trkpt>
      <trkpt lat="47.21877" lon="5.53089">
        <ele>237</ele>
        <time>2018-01-15T09:13:53Z</time>
      </trkpt>
      <trkpt lat="47.21872" lon="5.53075">
        <ele>239</ele>
        <time>2018-01-15T09:14:02Z</time>
      </trkpt>
      <trkpt lat="47.2187" lon="5.53062">
        <ele>240</ele>
        <time>2018-01-15T09:14:10Z</time>
      </trkpt>
      <trkpt lat="47.21871" lon="5.53055">
        <ele>240</ele>
        <time>2018-01-15T09:14:14Z</time>
      </trkpt>
      <trkpt lat="47.2188" lon="5.53029">
        <ele>242</ele>
        <time>2018-01-15T09:14:30Z</time>
      </trkpt>
      <trkpt lat="47.2189" lon="5.53013">
        <ele>242</ele>
        <time>2018-01-15T09:14:42Z</time>
      </trkpt>
      <trkpt lat="47.21898" lon="5.53006">
        <ele>241</ele>
        <time>2018-01-15T09:14:50Z</time>
      </trkpt>
      <trkpt lat="47.21912" lon="5.53">
        <ele>240</ele>
        <time>2018-01-15T09:15:02Z</time>
      </trkpt>
      <trkpt lat="47.21918" lon="5.52999">
        <ele>240</ele>
        <time>2018-01-15T09:15:06Z</time>
      </trkpt>
      <trkpt lat="47.21923" lon="5.53">
        <ele>241</ele>
        <time>2018-01-15T09:15:10Z</time>
      </trkpt>
      <trkpt lat="47.21929" lon="5.53001">
        <ele>241</ele>
        <time>2018-01-15T09:15:15Z</time>
      </trkpt>
      <trkpt lat="47.21933" lon="5.53002">
        <ele>241</ele>
        <time>2018-01-15T09:15:19Z</time>
      </trkpt>
      <trkpt lat="47.21938" lon="5.53005">
        <ele>241</ele>
        <time>2018-01-15T09:15:26Z</time>
      </trkpt>
      <trkpt lat="47.21966" lon="5.53036">
        <ele>243</ele>
        <time>2018-01-15T09:15:54Z</time>
      </trkpt>
      <trkpt lat="47.21984" lon="5.53052">
        <ele>243</ele>
        <time>2018-01-15T09:16:08Z</time>
      </trkpt>
      <trkpt lat="47.21988" lon="5.53055">
        <ele>243</ele>
        <time>2018-01-15T09:16:11Z</time>
      </trkpt>
      <trkpt lat="47.21997" lon="5.53064">
        <ele>244</ele>
        <time>2018-01-15T09:16:19Z</time>
      </trkpt>
      <trkpt lat="47.22" lon="5.5307">
        <ele>245</ele>
        <time>2018-01-15T09:16:23Z</time>
      </trkpt>
      <trkpt lat="47.22016" lon="5.53088">
        <ele>248</ele>
        <time>2018-01-15T09:16:40Z</time>
      </trkpt>
      <trkpt lat="47.2202" lon="5.53092">
        <ele>248</ele>
        <time>2018-01-15T09:16:44Z</time>
      </trkpt>
      <trkpt lat="47.22024" lon="5.53096">
        <ele>249</ele>
        <time>2018-01-15T09:16:47Z</time>
      </trkpt>
      <trkpt lat="47.22028" lon="5.531">
        <ele>249</ele>
        <time>2018-01-15T09:16:50Z</time>
      </trkpt>
      <trkpt lat="47.22038" lon="5.53107">
        <ele>249</ele>
        <time>2018-01-15T09:17:01Z</time>
      </trkpt>
      <trkpt lat="47.22043" lon="5.53111">
        <ele>248</ele>
        <time>2018-01-15T09:17:07Z</time>
      </trkpt>
      <trkpt lat="47.22068" lon="5.53126">
        <ele>246</ele>
        <time>2018-01-15T09:17:40Z</time>
      </trkpt>
      <trkpt lat="47.22082" lon="5.53135">
        <ele>246</ele>
        <time>2018-01-15T09:17:54Z</time>
      </trkpt>
      <trkpt lat="47.22093" lon="5.53131">
        <ele>245</ele>
        <time>2018-01-15T09:18:02Z</time>
      </trkpt>
      <trkpt lat="47.22097" lon="5.53135">
        <ele>244</ele>
        <time>2018-01-15T09:18:06Z</time>
      </trkpt>
      <trkpt lat="47.22102" lon="5.53139">
        <ele>245</ele>
        <time>2018-01-15T09:18:10Z</time>
      </trkpt>
      <trkpt lat="47.22107" lon="5.53141">
        <ele>245</ele>
        <time>2018-01-15T09:18:14Z</time>
      </trkpt>
      <trkpt lat="47.22127" lon="5.53151">
        <ele>247</ele>
        <time>2018-01-15T09:18:31Z</time>
      </trkpt>
      <trkpt lat="47.22143" lon="5.53171">
        <ele>248</ele>
        <time>2018-01-15T09:18:49Z</time>
      </trkpt>
      <trkpt lat="47.22164" lon="5.53211">
        <ele>250</ele>
        <time>2018-01-15T09:19:24Z</time>
      </trkpt>
      <trkpt lat="47.22184" lon="5.53264">
        <ele>252</ele>
        <time>2018-01-15T09:19:57Z</time>
      </trkpt>
      <trkpt lat="47.22189" lon="5.53277">
        <ele>253</ele>
        <time>2018-01-15T09:20:06Z</time>
      </trkpt>
      <trkpt lat="47.22193" lon="5.53297">
        <ele>254</ele>
        <time>2018-01-15T09:20:18Z</time>
      </trkpt>
      <trkpt lat="47.22204" lon="5.53319">
        <ele>256</ele>
        <time>2018-01-15T09:20:33Z</time>
      </trkpt>
      <trkpt lat="47.22208" lon="5.53324">
        <ele>256</ele>
        <time>2018-01-15T09:20:37Z</time>
      </trkpt>
      <trkpt lat="47.22225" lon="5.53355">
        <ele>256</ele>
        <time>2018-01-15T09:20:57Z</time>
      </trkpt>
      <trkpt lat="47.22228" lon="5.5336">
        <ele>256</ele>
        <time>2018-01-15T09:21:01Z</time>
      </trkpt>
      <trkpt lat="47.22231" lon="5.53365">
        <ele>255</ele>
        <time>2018-01-15T09:21:05Z</time>
      </trkpt>
      <trkpt lat="47.2224" lon="5.53382">
        <ele>255</ele>
        <time>2018-01-15T09:21:17Z</time>
      </trkpt>
      <trkpt lat="47.22246" lon="5.53394">
        <ele>254</ele>
        <time>2018-01-15T09:21:26Z</time>
      </trkpt>
      <trkpt lat="47.22252" lon="5.53406">
        <ele>255</ele>
        <time>2018-01-15T09:21:35Z</time>
      </trkpt>
      <trkpt lat="47.22273" lon="5.53448">
        <ele>255</ele>
        <time>2018-01-15T09:22:02Z</time>
      </trkpt>
      <trkpt lat="47.22279" lon="5.53461">
        <ele>256</ele>
        <time>2018-01-15T09:22:11Z</time>
      </trkpt>
      <trkpt lat="47.22282" lon="5.53466">
        <ele>256</ele>
        <time>2018-01-15T09:22:15Z</time>
      </trkpt>
      <trkpt lat="47.22285" lon="5.53473">
        <ele>256</ele>
        <time>2018-01-15T09:22:20Z</time>
      </trkpt>
      <trkpt lat="47.22285" lon="5.53487">
        <ele>257</ele>
        <time>2018-01-15T09:22:28Z</time>
      </trkpt>
      <trkpt lat="47.22282" lon="5.53493">
        <ele>258</ele>
        <time>2018-01-15T09:22:32Z</time>
      </trkpt>
      <trkpt lat="47.22273" lon="5.53503">
        <ele>258</ele>
        <time>2018-01-15T09:22:41Z</time>
      </trkpt>
      <trkpt lat="47.22265" lon="5.5352">
        <ele>258</ele>
        <time>2018-01-15T09:22:53Z</time>
      </trkpt>
      <trkpt lat="47.22262" lon="5.53528">
        <ele>258</ele>
        <time>2018-01-15T09:22:58Z</time>
      </trkpt>
      <trkpt lat="47.22261" lon="5.53588">
        <ele>259</ele>
        <time>2018-01-15T09:23:32Z</time>
      </trkpt>
      <trkpt lat="47.22263" lon="5.53617">
        <ele>260</ele>
        <time>2018-01-15T09:23:51Z</time>
      </trkpt>
      <trkpt lat="47.22261" lon="5.53623">
        <ele>260</ele>
        <time>2018-01-15T09:23:56Z</time>
      </trkpt>
      <trkpt lat="47.22266" lon="5.53636">
        <ele>262</ele>
        <time>2018-01-15T09:24:06Z</time>
      </trkpt>
      <trkpt lat="47.22267" lon="5.53644">
        <ele>263</ele>
        <time>2018-01-15T09:24:10Z</time>
      </trkpt>
      <trkpt lat="47.22269" lon="5.53651">
        <ele>264</ele>
        <time>2018-01-15T09:24:15Z</time>
      </trkpt>
      <trkpt lat="47.22269" lon="5.53659">
        <ele>264</ele>
        <time>2018-01-15T09:24:19Z</time>
      </trkpt>
      <trkpt lat="47.22273" lon="5.53664">
        <ele>265</ele>
        <time>2018-01-15T09:24:24Z</time>
      </trkpt>
      <trkpt lat="47.22273" lon="5.53672">
        <ele>265</ele>
        <time>2018-01-15T09:24:28Z</time>
      </trkpt>
      <trkpt lat="47.22276" lon="5.53678">
        <ele>266</ele>
        <time>2018-01-15T09:24:33Z</time>
      </trkpt>
      <trkpt lat="47.22276" lon="5.53685">
        <ele>266</ele>
        <time>2018-01-15T09:24:37Z</time>
      </trkpt>
      <trkpt lat="47.22274" lon="5.53692">
        <ele>267</ele>
        <time>2018-01-15T09:24:40Z</time>
      </trkpt>
      <trkpt lat="47.22276" lon="5.53699">
        <ele>268</ele>
        <time>2018-01-15T09:24:47Z</time>
      </trkpt>
      <trkpt lat="47.22288" lon="5.53714">
        <ele>270</ele>
        <time>2018-01-15T09:24:59Z</time>
      </trkpt>
      <trkpt lat="47.22293" lon="5.53716">
        <ele>270</ele>
        <time>2018-01-15T09:25:03Z</time>
      </trkpt>
      <trkpt lat="47.22301" lon="5.53726">
        <ele>271</ele>
        <time>2018-01-15T09:25:12Z</time>
      </trkpt>
      <trkpt lat="47.22307" lon="5.53738">
        <ele>272</ele>
        <time>2018-01-15T09:25:20Z</time>
      </trkpt>
      <trkpt lat="47.22301" lon="5.53738">
        <ele>273</ele>
        <time>2018-01-15T09:25:40Z</time>
      </trkpt>
      <trkpt lat="47.22297" lon="5.53742">
        <ele>274</ele>
        <time>2018-01-15T09:25:46Z</time>
      </trkpt>
      <trkpt lat="47.2229" lon="5.53742">
        <ele>276</ele>
        <time>2018-01-15T09:26:37Z</time>
      </trkpt>
      <trkpt lat="47.22284" lon="5.53731">
        <ele>278</ele>
        <time>2018-01-15T09:26:43Z</time>
      </trkpt>
      <trkpt lat="47.22281" lon="5.53724">
        <ele>279</ele>
        <time>2018-01-15T09:26:47Z</time>
      </trkpt>
      <trkpt lat="47.22277" lon="5.5372">
        <ele>280</ele>
        <time>2018-01-15T09:26:53Z</time>
      </trkpt>
      <trkpt lat="47.22267" lon="5.5372">
        <ele>281</ele>
        <time>2018-01-15T09:27:02Z</time>
      </trkpt>
      <trkpt lat="47.22261" lon="5.53722">
        <ele>281</ele>
        <time>2018-01-15T09:27:06Z</time>
      </trkpt>
      <trkpt lat="47.22253" lon="5.5373">
        <ele>282</ele>
        <time>2018-01-15T09:27:13Z</time>
      </trkpt>
      <trkpt lat="47.22248" lon="5.53731">
        <ele>282</ele>
        <time>2018-01-15T09:27:18Z</time>
      </trkpt>
      <trkpt lat="47.22243" lon="5.53734">
        <ele>282</ele>
        <time>2018-01-15T09:27:23Z</time>
      </trkpt>
      <trkpt lat="47.2224" lon="5.53739">
        <ele>282</ele>
        <time>2018-01-15T09:27:27Z</time>
      </trkpt>
      <trkpt lat="47.22239" lon="5.53745">
        <ele>282</ele>
        <time>2018-01-15T09:27:31Z</time>
      </trkpt>
      <trkpt lat="47.2224" lon="5.53752">
        <ele>282</ele>
        <time>2018-01-15T09:27:36Z</time>
      </trkpt>
      <trkpt lat="47.22241" lon="5.53759">
        <ele>283</ele>
        <time>2018-01-15T09:27:41Z</time>
      </trkpt>
      <trkpt lat="47.22243" lon="5.53767">
        <ele>283</ele>
        <time>2018-01-15T09:27:46Z</time>
      </trkpt>
      <trkpt lat="47.22245" lon="5.53773">
        <ele>283</ele>
        <time>2018-01-15T09:27:50Z</time>
      </trkpt>
      <trkpt lat="47.22248" lon="5.53778">
        <ele>283</ele>
        <time>2018-01-15T09:27:55Z</time>
      </trkpt>
      <trkpt lat="47.22249" lon="5.53785">
        <ele>283</ele>
        <time>2018-01-15T09:27:59Z</time>
      </trkpt>
      <trkpt lat="47.22253" lon="5.5379">
        <ele>283</ele>
        <time>2018-01-15T09:28:05Z</time>
      </trkpt>
      <trkpt lat="47.22257" lon="5.53794">
        <ele>283</ele>
        <time>2018-01-15T09:28:09Z</time>
      </trkpt>
      <trkpt lat="47.22261" lon="5.53796">
        <ele>283</ele>
        <time>2018-01-15T09:28:13Z</time>
      </trkpt>
      <trkpt lat="47.22266" lon="5.53801">
        <ele>283</ele>
        <time>2018-01-15T09:28:18Z</time>
      </trkpt>
      <trkpt lat="47.22268" lon="5.53815">
        <ele>283</ele>
        <time>2018-01-15T09:28:27Z</time>
      </trkpt>
      <trkpt lat="47.22266" lon="5.53821">
        <ele>286</ele>
        <time>2018-01-15T09:30:22Z</time>
      </trkpt>
      <trkpt lat="47.22248" lon="5.5378">
        <ele>285</ele>
        <time>2018-01-15T09:38:19Z</time>
      </trkpt>
      <trkpt lat="47.2224" lon="5.5376">
        <ele>285</ele>
        <time>2018-01-15T09:38:31Z</time>
      </trkpt>
      <trkpt lat="47.22238" lon="5.53746">
        <ele>285</ele>
        <time>2018-01-15T09:38:38Z</time>
      </trkpt>
      <trkpt lat="47.2224" lon="5.53739">
        <ele>285</ele>
        <time>2018-01-15T09:38:43Z</time>
      </trkpt>
      <trkpt lat="47.22244" lon="5.53733">
        <ele>285</ele>
        <time>2018-01-15T09:38:47Z</time>
      </trkpt>
      <trkpt lat="47.22256" lon="5.53721">
        <ele>285</ele>
        <time>2018-01-15T09:39:02Z</time>
      </trkpt>
      <trkpt lat="47.22261" lon="5.5372">
        <ele>285</ele>
        <time>2018-01-15T09:39:06Z</time>
      </trkpt>
      <trkpt lat="47.22272" lon="5.53721">
        <ele>285</ele>
        <time>2018-01-15T09:39:14Z</time>
      </trkpt>
      <trkpt lat="47.22277" lon="5.53723">
        <ele>285</ele>
        <time>2018-01-15T09:39:17Z</time>
      </trkpt>
      <trkpt lat="47.22283" lon="5.53724">
        <ele>284</ele>
        <time>2018-01-15T09:39:20Z</time>
      </trkpt>
      <trkpt lat="47.22288" lon="5.53724">
        <ele>284</ele>
        <time>2018-01-15T09:39:23Z</time>
      </trkpt>
      <trkpt lat="47.22293" lon="5.53737">
        <ele>283</ele>
        <time>2018-01-15T09:39:33Z</time>
      </trkpt>
      <trkpt lat="47.22295" lon="5.53744">
        <ele>283</ele>
        <time>2018-01-15T09:39:38Z</time>
      </trkpt>
      <trkpt lat="47.22299" lon="5.53749">
        <ele>283</ele>
        <time>2018-01-15T09:39:44Z</time>
      </trkpt>
      <trkpt lat="47.223" lon="5.53756">
        <ele>283</ele>
        <time>2018-01-15T09:39:48Z</time>
      </trkpt>
      <trkpt lat="47.22307" lon="5.5379">
        <ele>282</ele>
        <time>2018-01-15T09:40:09Z</time>
      </trkpt>
      <trkpt lat="47.2231" lon="5.53784">
        <ele>282</ele>
        <time>2018-01-15T09:40:14Z</time>
      </trkpt>
      <trkpt lat="47.22306" lon="5.53764">
        <ele>281</ele>
        <time>2018-01-15T09:40:27Z</time>
      </trkpt>
      <trkpt lat="47.22299" lon="5.53735">
        <ele>281</ele>
        <time>2018-01-15T09:40:41Z</time>
      </trkpt>
      <trkpt lat="47.22298" lon="5.53727">
        <ele>282</ele>
        <time>2018-01-15T09:40:45Z</time>
      </trkpt>
      <trkpt lat="47.22285" lon="5.53694">
        <ele>282</ele>
        <time>2018-01-15T09:41:05Z</time>
      </trkpt>
      <trkpt lat="47.22282" lon="5.53689">
        <ele>282</ele>
        <time>2018-01-15T09:41:08Z</time>
      </trkpt>
      <trkpt lat="47.22273" lon="5.53671">
        <ele>281</ele>
        <time>2018-01-15T09:41:21Z</time>
      </trkpt>
      <trkpt lat="47.22269" lon="5.53667">
        <ele>280</ele>
        <time>2018-01-15T09:41:25Z</time>
      </trkpt>
      <trkpt lat="47.22265" lon="5.53662">
        <ele>280</ele>
        <time>2018-01-15T09:41:29Z</time>
      </trkpt>
      <trkpt lat="47.22262" lon="5.53649">
        <ele>278</ele>
        <time>2018-01-15T09:41:37Z</time>
      </trkpt>
      <trkpt lat="47.22259" lon="5.53642">
        <ele>278</ele>
        <time>2018-01-15T09:41:42Z</time>
      </trkpt>
      <trkpt lat="47.22258" lon="5.53635">
        <ele>277</ele>
        <time>2018-01-15T09:41:46Z</time>
      </trkpt>
      <trkpt lat="47.22261" lon="5.53573">
        <ele>271</ele>
        <time>2018-01-15T09:42:18Z</time>
      </trkpt>
      <trkpt lat="47.22263" lon="5.53522">
        <ele>265</ele>
        <time>2018-01-15T09:42:47Z</time>
      </trkpt>
      <trkpt lat="47.22265" lon="5.53515">
        <ele>264</ele>
        <time>2018-01-15T09:42:52Z</time>
      </trkpt>
      <trkpt lat="47.22279" lon="5.53501">
        <ele>263</ele>
        <time>2018-01-15T09:43:05Z</time>
      </trkpt>
      <trkpt lat="47.22296" lon="5.53486">
        <ele>262</ele>
        <time>2018-01-15T09:43:21Z</time>
      </trkpt>
      <trkpt lat="47.22302" lon="5.53483">
        <ele>262</ele>
        <time>2018-01-15T09:43:25Z</time>
      </trkpt>
      <trkpt lat="47.22316" lon="5.53477">
        <ele>261</ele>
        <time>2018-01-15T09:43:38Z</time>
      </trkpt>
      <trkpt lat="47.22326" lon="5.53474">
        <ele>259</ele>
        <time>2018-01-15T09:43:47Z</time>
      </trkpt>
      <trkpt lat="47.22335" lon="5.53466">
        <ele>258</ele>
        <time>2018-01-15T09:43:55Z</time>
      </trkpt>
      <trkpt lat="47.22338" lon="5.5346">
        <ele>257</ele>
        <time>2018-01-15T09:43:59Z</time>
      </trkpt>
      <trkpt lat="47.22357" lon="5.53406">
        <ele>253</ele>
        <time>2018-01-15T09:44:33Z</time>
      </trkpt>
      <trkpt lat="47.2236" lon="5.53399">
        <ele>253</ele>
        <time>2018-01-15T09:44:37Z</time>
      </trkpt>
      <trkpt lat="47.22367" lon="5.5339">
        <ele>252</ele>
        <time>2018-01-15T09:44:44Z</time>
      </trkpt>
      <trkpt lat="47.22381" lon="5.53379">
        <ele>251</ele>
        <time>2018-01-15T09:44:56Z</time>
      </trkpt>
      <trkpt lat="47.2239" lon="5.53373">
        <ele>251</ele>
        <time>2018-01-15T09:45:05Z</time>
      </trkpt>
      <trkpt lat="47.2242" lon="5.53362">
        <ele>248</ele>
        <time>2018-01-15T09:45:29Z</time>
      </trkpt>
      <trkpt lat="47.22438" lon="5.53351">
        <ele>246</ele>
        <time>2018-01-15T09:45:46Z</time>
      </trkpt>
      <trkpt lat="47.2244" lon="5.53343">
        <ele>245</ele>
        <time>2018-01-15T09:45:51Z</time>
      </trkpt>
      <trkpt lat="47.2244" lon="5.53335">
        <ele>244</ele>
        <time>2018-01-15T09:45:57Z</time>
      </trkpt>
      <trkpt lat="47.22444" lon="5.53322">
        <ele>243</ele>
        <time>2018-01-15T09:46:08Z</time>
      </trkpt>
      <trkpt lat="47.22448" lon="5.53294">
        <ele>242</ele>
        <time>2018-01-15T09:46:27Z</time>
      </trkpt>
      <trkpt lat="47.22447" lon="5.53265">
        <ele>241</ele>
        <time>2018-01-15T09:46:43Z</time>
      </trkpt>
      <trkpt lat="47.22443" lon="5.53247">
        <ele>239</ele>
        <time>2018-01-15T09:47:15Z</time>
      </trkpt>
      <trkpt lat="47.22438" lon="5.53233">
        <ele>238</ele>
        <time>2018-01-15T09:47:23Z</time>
      </trkpt>
      <trkpt lat="47.22432" lon="5.53221">
        <ele>236</ele>
        <time>2018-01-15T09:47:31Z</time>
      </trkpt>
      <trkpt lat="47.22412" lon="5.53169">
        <ele>236</ele>
        <time>2018-01-15T09:48:03Z</time>
      </trkpt>
      <trkpt lat="47.22407" lon="5.53156">
        <ele>236</ele>
        <time>2018-01-15T09:48:11Z</time>
      </trkpt>
      <trkpt lat="47.22404" lon="5.53142">
        <ele>236</ele>
        <time>2018-01-15T09:48:19Z</time>
      </trkpt>
      <trkpt lat="47.22385" lon="5.53089">
        <ele>236</ele>
        <time>2018-01-15T09:48:51Z</time>
      </trkpt>
      <trkpt lat="47.22373" lon="5.53064">
        <ele>235</ele>
        <time>2018-01-15T09:49:06Z</time>
      </trkpt>
      <trkpt lat="47.22354" lon="5.53037">
        <ele>235</ele>
        <time>2018-01-15T09:49:27Z</time>
      </trkpt>
      <trkpt lat="47.22351" lon="5.53031">
        <ele>234</ele>
        <time>2018-01-15T09:49:31Z</time>
      </trkpt>
      <trkpt lat="47.22343" lon="5.53022">
        <ele>234</ele>
        <time>2018-01-15T09:49:40Z</time>
      </trkpt>
      <trkpt lat="47.22333" lon="5.53015">
        <ele>233</ele>
        <time>2018-01-15T09:49:48Z</time>
      </trkpt>
      <trkpt lat="47.22321" lon="5.53002">
        <ele>231</ele>
        <time>2018-01-15T09:50:00Z</time>
      </trkpt>
      <trkpt lat="47.22299" lon="5.52981">
        <ele>231</ele>
        <time>2018-01-15T09:50:21Z</time>
      </trkpt>
      <trkpt lat="47.22291" lon="5.52977">
        <ele>231</ele>
        <time>2018-01-15T09:50:29Z</time>
      </trkpt>
      <trkpt lat="47.22257" lon="5.52947">
        <ele>230</ele>
        <time>2018-01-15T09:51:02Z</time>
      </trkpt>
      <trkpt lat="47.22253" lon="5.52944">
        <ele>230</ele>
        <time>2018-01-15T09:51:06Z</time>
      </trkpt>
      <trkpt lat="47.22236" lon="5.52933">
        <ele>229</ele>
        <time>2018-01-15T09:51:20Z</time>
      </trkpt>
      <trkpt lat="47.22232" lon="5.52928">
        <ele>229</ele>
        <time>2018-01-15T09:51:24Z</time>
      </trkpt>
      <trkpt lat="47.22218" lon="5.52918">
        <ele>229</ele>
        <time>2018-01-15T09:51:38Z</time>
      </trkpt>
      <trkpt lat="47.22209" lon="5.52909">
        <ele>228</ele>
        <time>2018-01-15T09:51:48Z</time>
      </trkpt>
      <trkpt lat="47.222" lon="5.52902">
        <ele>228</ele>
        <time>2018-01-15T09:51:59Z</time>
      </trkpt>
      <trkpt lat="47.22187" lon="5.52892">
        <ele>227</ele>
        <time>2018-01-15T09:52:13Z</time>
      </trkpt>
      <trkpt lat="47.22148" lon="5.52872">
        <ele>227</ele>
        <time>2018-01-15T09:52:45Z</time>
      </trkpt>
      <trkpt lat="47.22122" lon="5.52852">
        <ele>225</ele>
        <time>2018-01-15T09:53:09Z</time>
      </trkpt>
      <trkpt lat="47.2211" lon="5.52838">
        <ele>224</ele>
        <time>2018-01-15T09:53:22Z</time>
      </trkpt>
      <trkpt lat="47.22107" lon="5.52833">
        <ele>224</ele>
        <time>2018-01-15T09:53:26Z</time>
      </trkpt>
      <trkpt lat="47.22102" lon="5.52829">
        <ele>225</ele>
        <time>2018-01-15T09:53:32Z</time>
      </trkpt>
      <trkpt lat="47.22094" lon="5.52822">
        <ele>225</ele>
        <time>2018-01-15T09:53:38Z</time>
      </trkpt>
      <trkpt lat="47.2209" lon="5.52817">
        <ele>225</ele>
        <time>2018-01-15T09:53:41Z</time>
      </trkpt>
      <trkpt lat="47.22086" lon="5.52815">
        <ele>225</ele>
        <time>2018-01-15T09:53:45Z</time>
      </trkpt>
      <trkpt lat="47.22083" lon="5.52808">
        <ele>225</ele>
        <time>2018-01-15T09:53:50Z</time>
      </trkpt>
      <trkpt lat="47.22069" lon="5.52795">
        <ele>226</ele>
        <time>2018-01-15T09:54:02Z</time>
      </trkpt>
      <trkpt lat="47.22064" lon="5.52794">
        <ele>226</ele>
        <time>2018-01-15T09:54:06Z</time>
      </trkpt>
      <trkpt lat="47.22047" lon="5.52776">
        <ele>224</ele>
        <time>2018-01-15T09:54:22Z</time>
      </trkpt>
      <trkpt lat="47.22039" lon="5.52765">
        <ele>223</ele>
        <time>2018-01-15T09:54:32Z</time>
      </trkpt>
      <trkpt lat="47.22035" lon="5.52761">
        <ele>223</ele>
        <time>2018-01-15T09:54:36Z</time>
      </trkpt>
      <trkpt lat="47.2202" lon="5.52742">
        <ele>221</ele>
        <time>2018-01-15T09:54:53Z</time>
      </trkpt>
      <trkpt lat="47.22008" lon="5.52723">
        <ele>221</ele>
        <time>2018-01-15T09:55:06Z</time>
      </trkpt>
      <trkpt lat="47.22005" lon="5.52717">
        <ele>222</ele>
        <time>2018-01-15T09:55:10Z</time>
      </trkpt>
      <trkpt lat="47.22002" lon="5.52712">
        <ele>222</ele>
        <time>2018-01-15T09:55:14Z</time>
      </trkpt>
      <trkpt lat="47.21994" lon="5.52701">
        <ele>222</ele>
        <time>2018-01-15T09:55:23Z</time>
      </trkpt>
      <trkpt lat="47.21987" lon="5.52692">
        <ele>221</ele>
        <time>2018-01-15T09:55:31Z</time>
      </trkpt>
      <trkpt lat="47.21983" lon="5.52686">
        <ele>221</ele>
        <time>2018-01-15T09:55:35Z</time>
      </trkpt>
      <trkpt lat="47.21971" lon="5.52673">
        <ele>220</ele>
        <time>2018-01-15T09:55:48Z</time>
      </trkpt>
      <trkpt lat="47.21967" lon="5.52668">
        <ele>220</ele>
        <time>2018-01-15T09:55:52Z</time>
      </trkpt>
      <trkpt lat="47.21934" lon="5.52634">
        <ele>220</ele>
        <time>2018-01-15T09:56:24Z</time>
      </trkpt>
      <trkpt lat="47.2193" lon="5.52629">
        <ele>219</ele>
        <time>2018-01-15T09:56:28Z</time>
      </trkpt>
      <trkpt lat="47.21922" lon="5.5262">
        <ele>219</ele>
        <time>2018-01-15T09:56:36Z</time>
      </trkpt>
      <trkpt lat="47.21919" lon="5.52615">
        <ele>219</ele>
        <time>2018-01-15T09:56:40Z</time>
      </trkpt>
      <trkpt lat="47.21912" lon="5.52605">
        <ele>221</ele>
        <time>2018-01-15T09:56:49Z</time>
      </trkpt>
      <trkpt lat="47.21894" lon="5.52585">
        <ele>221</ele>
        <time>2018-01-15T09:57:07Z</time>
      </trkpt>
      <trkpt lat="47.21891" lon="5.52581">
        <ele>221</ele>
        <time>2018-01-15T09:57:11Z</time>
      </trkpt>
      <trkpt lat="47.21884" lon="5.52569">
        <ele>222</ele>
        <time>2018-01-15T09:57:21Z</time>
      </trkpt>
      <trkpt lat="47.21864" lon="5.52546">
        <ele>224</ele>
        <time>2018-01-15T09:57:44Z</time>
      </trkpt>
      <trkpt lat="47.21853" lon="5.52531">
        <ele>223</ele>
        <time>2018-01-15T09:57:56Z</time>
      </trkpt>
      <trkpt lat="47.21833" lon="5.52499">
        <ele>224</ele>
        <time>2018-01-15T09:58:21Z</time>
      </trkpt>
      <trkpt lat="47.21829" lon="5.52494">
        <ele>224</ele>
        <time>2018-01-15T09:58:26Z</time>
      </trkpt>
      <trkpt lat="47.21825" lon="5.52493">
        <ele>222</ele>
        <time>2018-01-15T09:58:56Z</time>
      </trkpt>
      <trkpt lat="47.21821" lon="5.52484">
        <ele>222</ele>
        <time>2018-01-15T09:59:36Z</time>
      </trkpt>
      <trkpt lat="47.21812" lon="5.52457">
        <ele>224</ele>
        <time>2018-01-15T09:59:53Z</time>
      </trkpt>
      <trkpt lat="47.21809" lon="5.52452">
        <ele>224</ele>
        <time>2018-01-15T09:59:56Z</time>
      </trkpt>
      <trkpt lat="47.21782" lon="5.52414">
        <ele>222</ele>
        <time>2018-01-15T10:00:25Z</time>
      </trkpt>
      <trkpt lat="47.2176" lon="5.52361">
        <ele>222</ele>
        <time>2018-01-15T10:00:55Z</time>
      </trkpt>
      <trkpt lat="47.21757" lon="5.52346">
        <ele>222</ele>
        <time>2018-01-15T10:01:03Z</time>
      </trkpt>
      <trkpt lat="47.21757" lon="5.52323">
        <ele>221</ele>
        <time>2018-01-15T10:01:15Z</time>
      </trkpt>
      <trkpt lat="47.21761" lon="5.52292">
        <ele>219</ele>
        <time>2018-01-15T10:01:31Z</time>
      </trkpt>
      <trkpt lat="47.21777" lon="5.52239">
        <ele>215</ele>
        <time>2018-01-15T10:02:05Z</time>
      </trkpt>
      <trkpt lat="47.21781" lon="5.52224">
        <ele>214</ele>
        <time>2018-01-15T10:02:13Z</time>
      </trkpt>
      <trkpt lat="47.2178" lon="5.52217">
        <ele>214</ele>
        <time>2018-01-15T10:02:17Z</time>
      </trkpt>
      <trkpt lat="47.21775" lon="5.52214">
        <ele>214</ele>
        <time>2018-01-15T10:02:21Z</time>
      </trkpt>
      <trkpt lat="47.21736" lon="5.52201">
        <ele>212</ele>
        <time>2018-01-15T10:02:51Z</time>
      </trkpt>
      <trkpt lat="47.21732" lon="5.52198">
        <ele>212</ele>
        <time>2018-01-15T10:02:56Z</time>
      </trkpt>
      <trkpt lat="47.21718" lon="5.52189">
        <ele>211</ele>
        <time>2018-01-15T10:03:10Z</time>
      </trkpt>
      <trkpt lat="47.21681" lon="5.52166">
        <ele>212</ele>
        <time>2018-01-15T10:03:44Z</time>
      </trkpt>
      <trkpt lat="47.21664" lon="5.52153">
        <ele>213</ele>
        <time>2018-01-15T10:04:00Z</time>
      </trkpt>
      <trkpt lat="47.21659" lon="5.5215">
        <ele>213</ele>
        <time>2018-01-15T10:04:05Z</time>
      </trkpt>
      <trkpt lat="47.21644" lon="5.52156">
        <ele>215</ele>
        <time>2018-01-15T10:04:19Z</time>
      </trkpt>
      <trkpt lat="47.21634" lon="5.52157">
        <ele>215</ele>
        <time>2018-01-15T10:04:29Z</time>
      </trkpt>
      <trkpt lat="47.21628" lon="5.52158">
        <ele>216</ele>
        <time>2018-01-15T10:04:34Z</time>
      </trkpt>
      <trkpt lat="47.21598" lon="5.52162">
        <ele>218</ele>
        <time>2018-01-15T10:04:59Z</time>
      </trkpt>
      <trkpt lat="47.21588" lon="5.52161">
        <ele>218</ele>
        <time>2018-01-15T10:05:08Z</time>
      </trkpt>
      <trkpt lat="47.21584" lon="5.52166">
        <ele>218</ele>
        <time>2018-01-15T10:05:12Z</time>
      </trkpt>
      <trkpt lat="47.21561" lon="5.52213">
        <ele>218</ele>
        <time>2018-01-15T10:05:44Z</time>
      </trkpt>
      <trkpt lat="47.21536" lon="5.52257">
        <ele>219</ele>
        <time>2018-01-15T10:06:16Z</time>
      </trkpt>
      <trkpt lat="47.21528" lon="5.52268">
        <ele>220</ele>
        <time>2018-01-15T10:06:25Z</time>
      </trkpt>
      <trkpt lat="47.21527" lon="5.52275">
        <ele>220</ele>
        <time>2018-01-15T10:06:30Z</time>
      </trkpt>
      <trkpt lat="47.21527" lon="5.52282">
        <ele>220</ele>
        <time>2018-01-15T10:06:35Z</time>
      </trkpt>
      <trkpt lat="47.21512" lon="5.52328">
        <ele>220</ele>
        <time>2018-01-15T10:07:08Z</time>
      </trkpt>
      <trkpt lat="47.2151" lon="5.52335">
        <ele>221</ele>
        <time>2018-01-15T10:07:12Z</time>
      </trkpt>
      <trkpt lat="47.21506" lon="5.52355">
        <ele>220</ele>
        <time>2018-01-15T10:07:26Z</time>
      </trkpt>
      <trkpt lat="47.21498" lon="5.52374">
        <ele>220</ele>
        <time>2018-01-15T10:07:40Z</time>
      </trkpt>
      <trkpt lat="47.21493" lon="5.52381">
        <ele>219</ele>
        <time>2018-01-15T10:07:52Z</time>
      </trkpt>
      <trkpt lat="47.2149" lon="5.52388">
        <ele>219</ele>
        <time>2018-01-15T10:07:56Z</time>
      </trkpt>
      <trkpt lat="47.21478" lon="5.52412">
        <ele>218</ele>
        <time>2018-01-15T10:08:12Z</time>
      </trkpt>
      <trkpt lat="47.2147" lon="5.52431">
        <ele>219</ele>
        <time>2018-01-15T10:08:24Z</time>
      </trkpt>
      <trkpt lat="47.21469" lon="5.52438">
        <ele>219</ele>
        <time>2018-01-15T10:08:28Z</time>
      </trkpt>
      <trkpt lat="47.21471" lon="5.52462">
        <ele>219</ele>
        <time>2018-01-15T10:08:41Z</time>
      </trkpt>
      <trkpt lat="47.21473" lon="5.52468">
        <ele>219</ele>
        <time>2018-01-15T10:08:45Z</time>
      </trkpt>
      <trkpt lat="47.21476" lon="5.52475">
        <ele>220</ele>
        <time>2018-01-15T10:08:49Z</time>
      </trkpt>
      <trkpt lat="47.21479" lon="5.5248">
        <ele>220</ele>
        <time>2018-01-15T10:08:53Z</time>
      </trkpt>
      <trkpt lat="47.21479" lon="5.52487">
        <ele>220</ele>
        <time>2018-01-15T10:08:56Z</time>
      </trkpt>
      <trkpt lat="47.21497" lon="5.52534">
        <ele>222</ele>
        <time>2018-01-15T10:09:27Z</time>
      </trkpt>
      <trkpt lat="47.21505" lon="5.52552">
        <ele>222</ele>
        <time>2018-01-15T10:09:39Z</time>
      </trkpt>
      <trkpt lat="47.21509" lon="5.52566">
        <ele>222</ele>
        <time>2018-01-15T10:09:47Z</time>
      </trkpt>
      <trkpt lat="47.21509" lon="5.52573">
        <ele>222</ele>
        <time>2018-01-15T10:09:51Z</time>
      </trkpt>
      <trkpt lat="47.2151" lon="5.52587">
        <ele>223</ele>
        <time>2018-01-15T10:10:03Z</time>
      </trkpt>
      <trkpt lat="47.21508" lon="5.52595">
        <ele>223</ele>
        <time>2018-01-15T10:10:08Z</time>
      </trkpt>
      <trkpt lat="47.21502" lon="5.52606">
        <ele>224</ele>
        <time>2018-01-15T10:10:18Z</time>
      </trkpt>
      <trkpt lat="47.21498" lon="5.5261">
        <ele>224</ele>
        <time>2018-01-15T10:10:23Z</time>
      </trkpt>
      <trkpt lat="47.21494" lon="5.52615">
        <ele>224</ele>
        <time>2018-01-15T10:10:30Z</time>
      </trkpt>
      <trkpt lat="47.21492" lon="5.52622">
        <ele>224</ele>
        <time>2018-01-15T10:10:35Z</time>
      </trkpt>
      <trkpt lat="47.21492" lon="5.52628">
        <ele>224</ele>
        <time>2018-01-15T10:10:40Z</time>
      </trkpt>
      <trkpt lat="47.21494" lon="5.52642">
        <ele>224</ele>
        <time>2018-01-15T10:10:50Z</time>
      </trkpt>
      <trkpt lat="47.21499" lon="5.52652">
        <ele>224</ele>
        <time>2018-01-15T10:11:00Z</time>
      </trkpt>
      <trkpt lat="47.21512" lon="5.52706">
        <ele>224</ele>
        <time>2018-01-15T10:11:34Z</time>
      </trkpt>
      <trkpt lat="47.21516" lon="5.52719">
        <ele>224</ele>
        <time>2018-01-15T10:11:43Z</time>
      </trkpt>
      <trkpt lat="47.2152" lon="5.52725">
        <ele>223</ele>
        <time>2018-01-15T10:11:48Z</time>
      </trkpt>
      <trkpt lat="47.21524" lon="5.52728">
        <ele>223</ele>
        <time>2018-01-15T10:11:53Z</time>
      </trkpt>
      <trkpt lat="47.21527" lon="5.52735">
        <ele>223</ele>
        <time>2018-01-15T10:11:58Z</time>
      </trkpt>
      <trkpt lat="47.2153" lon="5.52726">
        <ele>221</ele>
        <time>2018-01-15T10:13:28Z</time>
      </trkpt>
      <trkpt lat="47.21535" lon="5.52721">
        <ele>219</ele>
        <time>2018-01-15T10:13:36Z</time>
      </trkpt>
      <trkpt lat="47.21535" lon="5.52714">
        <ele>218</ele>
        <time>2018-01-15T10:13:41Z</time>
      </trkpt>
      <trkpt lat="47.21539" lon="5.52717">
        <ele>218</ele>
        <time>2018-01-15T10:13:49Z</time>
      </trkpt>
      <trkpt lat="47.21541" lon="5.52725">
        <ele>218</ele>
        <time>2018-01-15T10:13:53Z</time>
      </trkpt>
      <trkpt lat="47.21542" lon="5.52731">
        <ele>218</ele>
        <time>2018-01-15T10:13:57Z</time>
      </trkpt>
      <trkpt lat="47.21547" lon="5.52744">
        <ele>217</ele>
        <time>2018-01-15T10:14:05Z</time>
      </trkpt>
      <trkpt lat="47.21555" lon="5.52754">
        <ele>217</ele>
        <time>2018-01-15T10:14:14Z</time>
      </trkpt>
      <trkpt lat="47.21569" lon="5.52764">
        <ele>217</ele>
        <time>2018-01-15T10:14:26Z</time>
      </trkpt>
      <trkpt lat="47.21584" lon="5.52769">
        <ele>217</ele>
        <time>2018-01-15T10:14:41Z</time>
      </trkpt>
      <trkpt lat="47.21589" lon="5.5277">
        <ele>218</ele>
        <time>2018-01-15T10:14:47Z</time>
      </trkpt>
      <trkpt lat="47.21593" lon="5.52766">
        <ele>218</ele>
        <time>2018-01-15T10:14:54Z</time>
      </trkpt>
      <trkpt lat="47.21596" lon="5.5276">
        <ele>218</ele>
        <time>2018-01-15T10:14:58Z</time>
      </trkpt>
      <trkpt lat="47.21596" lon="5.52746">
        <ele>219</ele>
        <time>2018-01-15T10:15:07Z</time>
      </trkpt>
      <trkpt lat="47.21606" lon="5.5272">
        <ele>219</ele>
        <time>2018-01-15T10:15:26Z</time>
      </trkpt>
      <trkpt lat="47.21619" lon="5.52697">
        <ele>220</ele>
        <time>2018-01-15T10:15:43Z</time>
      </trkpt>
      <trkpt lat="47.2162" lon="5.52689">
        <ele>220</ele>
        <time>2018-01-15T10:15:48Z</time>
      </trkpt>
      <trkpt lat="47.2163" lon="5.52663">
        <ele>220</ele>
        <time>2018-01-15T10:16:04Z</time>
      </trkpt>
      <trkpt lat="47.21633" lon="5.52657">
        <ele>220</ele>
        <time>2018-01-15T10:16:08Z</time>
      </trkpt>
      <trkpt lat="47.21637" lon="5.52653">
        <ele>221</ele>
        <time>2018-01-15T10:16:16Z</time>
      </trkpt>
      <trkpt lat="47.2164" lon="5.52647">
        <ele>221</ele>
        <time>2018-01-15T10:16:21Z</time>
      </trkpt>
      <trkpt lat="47.21648" lon="5.52636">
        <ele>221</ele>
        <time>2018-01-15T10:16:29Z</time>
      </trkpt>
      <trkpt lat="47.21648" lon="5.52629">
        <ele>221</ele>
        <time>2018-01-15T10:16:33Z</time>
      </trkpt>
      <trkpt lat="47.21651" lon="5.52622">
        <ele>221</ele>
        <time>2018-01-15T10:16:38Z</time>
      </trkpt>
      <trkpt lat="47.21671" lon="5.52585">
        <ele>222</ele>
        <time>2018-01-15T10:17:03Z</time>
      </trkpt>
      <trkpt lat="47.21679" lon="5.52559">
        <ele>221</ele>
        <time>2018-01-15T10:17:20Z</time>
      </trkpt>
      <trkpt lat="47.21679" lon="5.52545">
        <ele>220</ele>
        <time>2018-01-15T10:17:28Z</time>
      </trkpt>
      <trkpt lat="47.2168" lon="5.52532">
        <ele>220</ele>
        <time>2018-01-15T10:17:35Z</time>
      </trkpt>
      <trkpt lat="47.21673" lon="5.52489">
        <ele>220</ele>
        <time>2018-01-15T10:17:52Z</time>
      </trkpt>
      <trkpt lat="47.2167" lon="5.52459">
        <ele>217</ele>
        <time>2018-01-15T10:18:16Z</time>
      </trkpt>
      <trkpt lat="47.21664" lon="5.52447">
        <ele>216</ele>
        <time>2018-01-15T10:18:26Z</time>
      </trkpt>
      <trkpt lat="47.21658" lon="5.52407">
        <ele>215</ele>
        <time>2018-01-15T10:18:59Z</time>
      </trkpt>
      <trkpt lat="47.21651" lon="5.52381">
        <ele>214</ele>
        <time>2018-01-15T10:19:19Z</time>
      </trkpt>
      <trkpt lat="47.21638" lon="5.52379">
        <ele>213</ele>
        <time>2018-01-15T10:20:12Z</time>
      </trkpt>
      <trkpt lat="47.21618" lon="5.52381">
        <ele>212</ele>
        <time>2018-01-15T10:20:30Z</time>
      </trkpt>
      <trkpt lat="47.21613" lon="5.52381">
        <ele>211</ele>
        <time>2018-01-15T10:20:35Z</time>
      </trkpt>
      <trkpt lat="47.21608" lon="5.5238">
        <ele>211</ele>
        <time>2018-01-15T10:20:38Z</time>
      </trkpt>
      <trkpt lat="47.21604" lon="5.52377">
        <ele>212</ele>
        <time>2018-01-15T10:20:44Z</time>
      </trkpt>
      <trkpt lat="47.21599" lon="5.52376">
        <ele>212</ele>
        <time>2018-01-15T10:20:49Z</time>
      </trkpt>
      <trkpt lat="47.21585" lon="5.5237">
        <ele>211</ele>
        <time>2018-01-15T10:21:03Z</time>
      </trkpt>
      <trkpt lat="47.21576" lon="5.52365">
        <ele>212</ele>
        <time>2018-01-15T10:21:13Z</time>
      </trkpt>
      <trkpt lat="47.21567" lon="5.52355">
        <ele>212</ele>
        <time>2018-01-15T10:21:22Z</time>
      </trkpt>
      <trkpt lat="47.21561" lon="5.52343">
        <ele>213</ele>
        <time>2018-01-15T10:21:29Z</time>
      </trkpt>
      <trkpt lat="47.21547" lon="5.52303">
        <ele>217</ele>
        <time>2018-01-15T10:22:02Z</time>
      </trkpt>
      <trkpt lat="47.21542" lon="5.52291">
        <ele>217</ele>
        <time>2018-01-15T10:22:10Z</time>
      </trkpt>
      <trkpt lat="47.2153" lon="5.52278">
        <ele>219</ele>
        <time>2018-01-15T10:22:27Z</time>
      </trkpt>
      <trkpt lat="47.21519" lon="5.52286">
        <ele>220</ele>
        <time>2018-01-15T10:23:06Z</time>
      </trkpt>
      <trkpt lat="47.21505" lon="5.52303">
        <ele>220</ele>
        <time>2018-01-15T10:23:21Z</time>
      </trkpt>
      <trkpt lat="47.21499" lon="5.52315">
        <ele>219</ele>
        <time>2018-01-15T10:23:28Z</time>
      </trkpt>
      <trkpt lat="47.21487" lon="5.52336">
        <ele>220</ele>
        <time>2018-01-15T10:23:42Z</time>
      </trkpt>
      <trkpt lat="47.21464" lon="5.5238">
        <ele>219</ele>
        <time>2018-01-15T10:24:13Z</time>
      </trkpt>
      <trkpt lat="47.21432" lon="5.52433">
        <ele>220</ele>
        <time>2018-01-15T10:24:51Z</time>
      </trkpt>
      <trkpt lat="47.21408" lon="5.52476">
        <ele>223</ele>
        <time>2018-01-15T10:25:24Z</time>
      </trkpt>
      <trkpt lat="47.21384" lon="5.52519">
        <ele>224</ele>
        <time>2018-01-15T10:25:59Z</time>
      </trkpt>
      <trkpt lat="47.21354" lon="5.52574">
        <ele>226</ele>
        <time>2018-01-15T10:26:36Z</time>
      </trkpt>
      <trkpt lat="47.2133" lon="5.52619">
        <ele>228</ele>
        <time>2018-01-15T10:27:07Z</time>
      </trkpt>
      <trkpt lat="47.21323" lon="5.52631">
        <ele>229</ele>
        <time>2018-01-15T10:27:15Z</time>
      </trkpt>
      <trkpt lat="47.21308" lon="5.52657">
        <ele>229</ele>
        <time>2018-01-15T10:27:34Z</time>
      </trkpt>
      <trkpt lat="47.21284" lon="5.52701">
        <ele>232</ele>
        <time>2018-01-15T10:28:07Z</time>
      </trkpt>
      <trkpt lat="47.21278" lon="5.52711">
        <ele>232</ele>
        <time>2018-01-15T10:28:14Z</time>
      </trkpt>
      <trkpt lat="47.2126" lon="5.52725">
        <ele>232</ele>
        <time>2018-01-15T10:28:31Z</time>
      </trkpt>
      <trkpt lat="47.21253" lon="5.52734">
        <ele>233</ele>
        <time>2018-01-15T10:28:38Z</time>
      </trkpt>
      <trkpt lat="47.21236" lon="5.52748">
        <ele>233</ele>
        <time>2018-01-15T10:28:54Z</time>
      </trkpt>
      <trkpt lat="47.21232" lon="5.52751">
        <ele>234</ele>
        <time>2018-01-15T10:28:58Z</time>
      </trkpt>
      <trkpt lat="47.21227" lon="5.52753">
        <ele>234</ele>
        <time>2018-01-15T10:29:02Z</time>
      </trkpt>
      <trkpt lat="47.21222" lon="5.52756">
        <ele>234</ele>
        <time>2018-01-15T10:29:06Z</time>
      </trkpt>
      <trkpt lat="47.21217" lon="5.52759">
        <ele>234</ele>
        <time>2018-01-15T10:29:10Z</time>
      </trkpt>
      <trkpt lat="47.21194" lon="5.52777">
        <ele>237</ele>
        <time>2018-01-15T10:29:31Z</time>
      </trkpt>
      <trkpt lat="47.21184" lon="5.52781">
        <ele>239</ele>
        <time>2018-01-15T10:29:38Z</time>
      </trkpt>
      <trkpt lat="47.21157" lon="5.52779">
        <ele>241</ele>
        <time>2018-01-15T10:30:01Z</time>
      </trkpt>
      <trkpt lat="47.21147" lon="5.52776">
        <ele>241</ele>
        <time>2018-01-15T10:30:11Z</time>
      </trkpt>
      <trkpt lat="47.21123" lon="5.52766">
        <ele>240</ele>
        <time>2018-01-15T10:30:33Z</time>
      </trkpt>
      <trkpt lat="47.21113" lon="5.52762">
        <ele>241</ele>
        <time>2018-01-15T10:30:43Z</time>
      </trkpt>
      <trkpt lat="47.21108" lon="5.52761">
        <ele>241</ele>
        <time>2018-01-15T10:30:48Z</time>
      </trkpt>
      <trkpt lat="47.21098" lon="5.52757">
        <ele>242</ele>
        <time>2018-01-15T10:30:56Z</time>
      </trkpt>
      <trkpt lat="47.21094" lon="5.52754">
        <ele>243</ele>
        <time>2018-01-15T10:31:00Z</time>
      </trkpt>
      <trkpt lat="47.2109" lon="5.52751">
        <ele>243</ele>
        <time>2018-01-15T10:31:03Z</time>
      </trkpt>
      <trkpt lat="47.2105" lon="5.52737">
        <ele>247</ele>
        <time>2018-01-15T10:31:38Z</time>
      </trkpt>
      <trkpt lat="47.21045" lon="5.52736">
        <ele>247</ele>
        <time>2018-01-15T10:31:43Z</time>
      </trkpt>
      <trkpt lat="47.2104" lon="5.52736">
        <ele>248</ele>
        <time>2018-01-15T10:31:48Z</time>
      </trkpt>
      <trkpt lat="47.21024" lon="5.52732">
        <ele>249</ele>
        <time>2018-01-15T10:32:00Z</time>
      </trkpt>
      <trkpt lat="47.21018" lon="5.5273">
        <ele>249</ele>
        <time>2018-01-15T10:32:05Z</time>
      </trkpt>
      <trkpt lat="47.21014" lon="5.52729">
        <ele>250</ele>
        <time>2018-01-15T10:32:09Z</time>
      </trkpt>
      <trkpt lat="47.21009" lon="5.52726">
        <ele>249</ele>
        <time>2018-01-15T10:32:14Z</time>
      </trkpt>
      <trkpt lat="47.20989" lon="5.52717">
        <ele>250</ele>
        <time>2018-01-15T10:32:32Z</time>
      </trkpt>
      <trkpt lat="47.20955" lon="5.52703">
        <ele>255</ele>
        <time>2018-01-15T10:33:03Z</time>
      </trkpt>
      <trkpt lat="47.20945" lon="5.52701">
        <ele>256</ele>
        <time>2018-01-15T10:33:11Z</time>
      </trkpt>
      <trkpt lat="47.2094" lon="5.52701">
        <ele>256</ele>
        <time>2018-01-15T10:33:16Z</time>
      </trkpt>
      <trkpt lat="47.20925" lon="5.52697">
        <ele>256</ele>
        <time>2018-01-15T10:33:31Z</time>
      </trkpt>
      <trkpt lat="47.2091" lon="5.52693">
        <ele>258</ele>
        <time>2018-01-15T10:33:43Z</time>
      </trkpt>
      <trkpt lat="47.20901" lon="5.52688">
        <ele>261</ele>
        <time>2018-01-15T10:33:53Z</time>
      </trkpt>
      <trkpt lat="47.20892" lon="5.52689">
        <ele>263</ele>
        <time>2018-01-15T10:34:03Z</time>
      </trkpt>
      <trkpt lat="47.20887" lon="5.52691">
        <ele>263</ele>
        <time>2018-01-15T10:34:09Z</time>
      </trkpt>
      <trkpt lat="47.20878" lon="5.52691">
        <ele>263</ele>
        <time>2018-01-15T10:34:19Z</time>
      </trkpt>
      <trkpt lat="47.20869" lon="5.52695">
        <ele>264</ele>
        <time>2018-01-15T10:34:28Z</time>
      </trkpt>
      <trkpt lat="47.20851" lon="5.52699">
        <ele>267</ele>
        <time>2018-01-15T10:34:54Z</time>
      </trkpt>
      <trkpt lat="47.20846" lon="5.52711">
        <ele>270</ele>
        <time>2018-01-15T10:35:21Z</time>
      </trkpt>
      <trkpt lat="47.20849" lon="5.52702">
        <ele>281</ele>
        <time>2018-01-15T10:36:33Z</time>
      </trkpt>
      <trkpt lat="47.2084" lon="5.52697">
        <ele>281</ele>
        <time>2018-01-15T10:36:47Z</time>
      </trkpt>
      <trkpt lat="47.2083" lon="5.52696">
        <ele>279</ele>
        <time>2018-01-15T10:36:57Z</time>
      </trkpt>
      <trkpt lat="47.20819" lon="5.52697">
        <ele>278</ele>
        <time>2018-01-15T10:37:05Z</time>
      </trkpt>
      <trkpt lat="47.20801" lon="5.52703">
        <ele>279</ele>
        <time>2018-01-15T10:37:21Z</time>
      </trkpt>
      <trkpt lat="47.20792" lon="5.5271">
        <ele>281</ele>
        <time>2018-01-15T10:37:29Z</time>
      </trkpt>
      <trkpt lat="47.20773" lon="5.52717">
        <ele>282</ele>
        <time>2018-01-15T10:37:41Z</time>
      </trkpt>
      <trkpt lat="47.20758" lon="5.52719">
        <ele>282</ele>
        <time>2018-01-15T10:37:51Z</time>
      </trkpt>
      <trkpt lat="47.20737" lon="5.52718">
        <ele>280</ele>
        <time>2018-01-15T10:38:08Z</time>
      </trkpt>
      <trkpt lat="47.20711" lon="5.52714">
        <ele>275</ele>
        <time>2018-01-15T10:38:31Z</time>
      </trkpt>
      <trkpt lat="47.20675" lon="5.52699">
        <ele>275</ele>
        <time>2018-01-15T10:38:58Z</time>
      </trkpt>
      <trkpt lat="47.20644" lon="5.52688">
        <ele>271</ele>
        <time>2018-01-15T10:39:24Z</time>
      </trkpt>
      <trkpt lat="47.20629" lon="5.52684">
        <ele>272</ele>
        <time>2018-01-15T10:39:36Z</time>
      </trkpt>
      <trkpt lat="47.20619" lon="5.5268">
        <ele>271</ele>
        <time>2018-01-15T10:39:45Z</time>
      </trkpt>
      <trkpt lat="47.20614" lon="5.52679">
        <ele>270</ele>
        <time>2018-01-15T10:39:49Z</time>
      </trkpt>
      <trkpt lat="47.20606" lon="5.52674">
        <ele>270</ele>
        <time>2018-01-15T10:39:58Z</time>
      </trkpt>
      <trkpt lat="47.20572" lon="5.52642">
        <ele>271</ele>
        <time>2018-01-15T10:40:30Z</time>
      </trkpt>
      <trkpt lat="47.20564" lon="5.52633">
        <ele>272</ele>
        <time>2018-01-15T10:40:38Z</time>
      </trkpt>
      <trkpt lat="47.20555" lon="5.52624">
        <ele>271</ele>
        <time>2018-01-15T10:40:46Z</time>
      </trkpt>
      <trkpt lat="47.20552" lon="5.52619">
        <ele>272</ele>
        <time>2018-01-15T10:40:50Z</time>
      </trkpt>
      <trkpt lat="47.20517" lon="5.52581">
        <ele>271</ele>
        <time>2018-01-15T10:41:24Z</time>
      </trkpt>
      <trkpt lat="47.20508" lon="5.52573">
        <ele>272</ele>
        <time>2018-01-15T10:41:32Z</time>
      </trkpt>
      <trkpt lat="47.20486" lon="5.5255">
        <ele>274</ele>
        <time>2018-01-15T10:41:53Z</time>
      </trkpt>
      <trkpt lat="47.20482" lon="5.52546">
        <ele>274</ele>
        <time>2018-01-15T10:41:57Z</time>
      </trkpt>
      <trkpt lat="47.20474" lon="5.52537">
        <ele>274</ele>
        <time>2018-01-15T10:42:06Z</time>
      </trkpt>
      <trkpt lat="47.2047" lon="5.52533">
        <ele>274</ele>
        <time>2018-01-15T10:42:10Z</time>
      </trkpt>
      <trkpt lat="47.20465" lon="5.5253">
        <ele>275</ele>
        <time>2018-01-15T10:42:14Z</time>
      </trkpt>
      <trkpt lat="47.20461" lon="5.52525">
        <ele>274</ele>
        <time>2018-01-15T10:42:18Z</time>
      </trkpt>
      <trkpt lat="47.20453" lon="5.52517">
        <ele>275</ele>
        <time>2018-01-15T10:42:25Z</time>
      </trkpt>
      <trkpt lat="47.20449" lon="5.52513">
        <ele>274</ele>
        <time>2018-01-15T10:42:29Z</time>
      </trkpt>
      <trkpt lat="47.20441" lon="5.52504">
        <ele>273</ele>
        <time>2018-01-15T10:42:36Z</time>
      </trkpt>
      <trkpt lat="47.20437" lon="5.52499">
        <ele>273</ele>
        <time>2018-01-15T10:42:40Z</time>
      </trkpt>
      <trkpt lat="47.20433" lon="5.52496">
        <ele>273</ele>
        <time>2018-01-15T10:42:44Z</time>
      </trkpt>
      <trkpt lat="47.20419" lon="5.52483">
        <ele>272</ele>
        <time>2018-01-15T10:42:57Z</time>
      </trkpt>
      <trkpt lat="47.20411" lon="5.52475">
        <ele>272</ele>
        <time>2018-01-15T10:43:05Z</time>
      </trkpt>
      <trkpt lat="47.20407" lon="5.52471">
        <ele>273</ele>
        <time>2018-01-15T10:43:09Z</time>
      </trkpt>
      <trkpt lat="47.20403" lon="5.52467">
        <ele>273</ele>
        <time>2018-01-15T10:43:13Z</time>
      </trkpt>
      <trkpt lat="47.204" lon="5.52462">
        <ele>272</ele>
        <time>2018-01-15T10:43:17Z</time>
      </trkpt>
      <trkpt lat="47.20366" lon="5.52428">
        <ele>271</ele>
        <time>2018-01-15T10:43:49Z</time>
      </trkpt>
      <trkpt lat="47.20349" lon="5.52412">
        <ele>272</ele>
        <time>2018-01-15T10:44:05Z</time>
      </trkpt>
      <trkpt lat="47.20336" lon="5.52399">
        <ele>270</ele>
        <time>2018-01-15T10:44:18Z</time>
      </trkpt>
      <trkpt lat="47.20332" lon="5.52396">
        <ele>270</ele>
        <time>2018-01-15T10:44:22Z</time>
      </trkpt>
      <trkpt lat="47.20328" lon="5.52391">
        <ele>270</ele>
        <time>2018-01-15T10:44:26Z</time>
      </trkpt>
      <trkpt lat="47.2032" lon="5.52383">
        <ele>270</ele>
        <time>2018-01-15T10:44:34Z</time>
      </trkpt>
      <trkpt lat="47.20298" lon="5.52361">
        <ele>268</ele>
        <time>2018-01-15T10:44:54Z</time>
      </trkpt>
      <trkpt lat="47.20288" lon="5.52352">
        <ele>269</ele>
        <time>2018-01-15T10:45:03Z</time>
      </trkpt>
      <trkpt lat="47.20253" lon="5.52318">
        <ele>263</ele>
        <time>2018-01-15T10:45:35Z</time>
      </trkpt>
      <trkpt lat="47.20239" lon="5.52309">
        <ele>262</ele>
        <time>2018-01-15T10:45:47Z</time>
      </trkpt>
      <trkpt lat="47.20228" lon="5.52306">
        <ele>262</ele>
        <time>2018-01-15T10:45:57Z</time>
      </trkpt>
      <trkpt lat="47.20213" lon="5.52299">
        <ele>263</ele>
        <time>2018-01-15T10:46:09Z</time>
      </trkpt>
      <trkpt lat="47.20202" lon="5.52298">
        <ele>263</ele>
        <time>2018-01-15T10:46:19Z</time>
      </trkpt>
      <trkpt lat="47.20198" lon="5.523">
        <ele>263</ele>
        <time>2018-01-15T10:46:23Z</time>
      </trkpt>
      <trkpt lat="47.20193" lon="5.52302">
        <ele>262</ele>
        <time>2018-01-15T10:46:27Z</time>
      </trkpt>
      <trkpt lat="47.20188" lon="5.52305">
        <ele>262</ele>
        <time>2018-01-15T10:46:32Z</time>
      </trkpt>
      <trkpt lat="47.20183" lon="5.52305">
        <ele>262</ele>
        <time>2018-01-15T10:46:36Z</time>
      </trkpt>
      <trkpt lat="47.20178" lon="5.52308">
        <ele>262</ele>
        <time>2018-01-15T10:46:41Z</time>
      </trkpt>
      <trkpt lat="47.20169" lon="5.52307">
        <ele>262</ele>
        <time>2018-01-15T10:46:58Z</time>
      </trkpt>
      <trkpt lat="47.20164" lon="5.5231">
        <ele>262</ele>
        <time>2018-01-15T10:47:02Z</time>
      </trkpt>
      <trkpt lat="47.20122" lon="5.5232">
        <ele>260</ele>
        <time>2018-01-15T10:47:35Z</time>
      </trkpt>
      <trkpt lat="47.20081" lon="5.52325">
        <ele>257</ele>
        <time>2018-01-15T10:48:06Z</time>
      </trkpt>
      <trkpt lat="47.2004" lon="5.52334">
        <ele>255</ele>
        <time>2018-01-15T10:48:38Z</time>
      </trkpt>
      <trkpt lat="47.19998" lon="5.52339">
        <ele>251</ele>
        <time>2018-01-15T10:49:10Z</time>
      </trkpt>
      <trkpt lat="47.19967" lon="5.52332">
        <ele>249</ele>
        <time>2018-01-15T10:49:34Z</time>
      </trkpt>
      <trkpt lat="47.19948" lon="5.52322">
        <ele>248</ele>
        <time>2018-01-15T10:49:50Z</time>
      </trkpt>
      <trkpt lat="47.19934" lon="5.52315">
        <ele>246</ele>
        <time>2018-01-15T10:49:59Z</time>
      </trkpt>
      <trkpt lat="47.19913" lon="5.52313">
        <ele>245</ele>
        <time>2018-01-15T10:50:14Z</time>
      </trkpt>
      <trkpt lat="47.19908" lon="5.52314">
        <ele>245</ele>
        <time>2018-01-15T10:50:18Z</time>
      </trkpt>
      <trkpt lat="47.19894" lon="5.52326">
        <ele>244</ele>
        <time>2018-01-15T10:50:30Z</time>
      </trkpt>
      <trkpt lat="47.1989" lon="5.52331">
        <ele>244</ele>
        <time>2018-01-15T10:50:35Z</time>
      </trkpt>
      <trkpt lat="47.19887" lon="5.52336">
        <ele>244</ele>
        <time>2018-01-15T10:50:41Z</time>
      </trkpt>
      <trkpt lat="47.19885" lon="5.52342">
        <ele>244</ele>
        <time>2018-01-15T10:50:44Z</time>
      </trkpt>
      <trkpt lat="47.19874" lon="5.52358">
        <ele>243</ele>
        <time>2018-01-15T10:50:55Z</time>
      </trkpt>
      <trkpt lat="47.19867" lon="5.5237">
        <ele>244</ele>
        <time>2018-01-15T10:51:02Z</time>
      </trkpt>
      <trkpt lat="47.19859" lon="5.52383">
        <ele>244</ele>
        <time>2018-01-15T10:51:10Z</time>
      </trkpt>
      <trkpt lat="47.19847" lon="5.52399">
        <ele>245</ele>
        <time>2018-01-15T10:51:22Z</time>
      </trkpt>
      <trkpt lat="47.19843" lon="5.52405">
        <ele>245</ele>
        <time>2018-01-15T10:51:26Z</time>
      </trkpt>
      <trkpt lat="47.19812" lon="5.52437">
        <ele>244</ele>
        <time>2018-01-15T10:52:25Z</time>
      </trkpt>
      <trkpt lat="47.19803" lon="5.52431">
        <ele>245</ele>
        <time>2018-01-15T10:53:40Z</time>
      </trkpt>
      <trkpt lat="47.19798" lon="5.52427">
        <ele>245</ele>
        <time>2018-01-15T10:53:45Z</time>
      </trkpt>
      <trkpt lat="47.19788" lon="5.52411">
        <ele>242</ele>
        <time>2018-01-15T10:54:00Z</time>
      </trkpt>
      <trkpt lat="47.19783" lon="5.52413">
        <ele>242</ele>
        <time>2018-01-15T10:54:05Z</time>
      </trkpt>
      <trkpt lat="47.19779" lon="5.52418">
        <ele>242</ele>
        <time>2018-01-15T10:54:09Z</time>
      </trkpt>
      <trkpt lat="47.19769" lon="5.52419">
        <ele>241</ele>
        <time>2018-01-15T10:54:18Z</time>
      </trkpt>
      <trkpt lat="47.19759" lon="5.52412">
        <ele>242</ele>
        <time>2018-01-15T10:54:28Z</time>
      </trkpt>
      <trkpt lat="47.19754" lon="5.52413">
        <ele>242</ele>
        <time>2018-01-15T10:54:33Z</time>
      </trkpt>
      <trkpt lat="47.19749" lon="5.5241">
        <ele>242</ele>
        <time>2018-01-15T10:54:37Z</time>
      </trkpt>
      <trkpt lat="47.19728" lon="5.5241">
        <ele>242</ele>
        <time>2018-01-15T10:54:54Z</time>
      </trkpt>
      <trkpt lat="47.19718" lon="5.5241">
        <ele>243</ele>
        <time>2018-01-15T10:55:01Z</time>
      </trkpt>
      <trkpt lat="47.19713" lon="5.52412">
        <ele>243</ele>
        <time>2018-01-15T10:55:04Z</time>
      </trkpt>
      <trkpt lat="47.19708" lon="5.5241">
        <ele>243</ele>
        <time>2018-01-15T10:55:09Z</time>
      </trkpt>
      <trkpt lat="47.197" lon="5.52401">
        <ele>243</ele>
        <time>2018-01-15T10:55:18Z</time>
      </trkpt>
      <trkpt lat="47.19696" lon="5.52405">
        <ele>243</ele>
        <time>2018-01-15T10:55:24Z</time>
      </trkpt>
      <trkpt lat="47.1969" lon="5.52401">
        <ele>243</ele>
        <time>2018-01-15T10:55:33Z</time>
      </trkpt>
      <trkpt lat="47.19685" lon="5.52399">
        <ele>242</ele>
        <time>2018-01-15T10:55:36Z</time>
      </trkpt>
      <trkpt lat="47.1967" lon="5.52396">
        <ele>242</ele>
        <time>2018-01-15T10:55:55Z</time>
      </trkpt>
      <trkpt lat="47.19665" lon="5.52397">
        <ele>241</ele>
        <time>2018-01-15T10:56:03Z</time>
      </trkpt>
      <trkpt lat="47.19655" lon="5.52394">
        <ele>240</ele>
        <time>2018-01-15T10:56:14Z</time>
      </trkpt>
      <trkpt lat="47.19648" lon="5.52386">
        <ele>240</ele>
        <time>2018-01-15T10:56:24Z</time>
      </trkpt>
      <trkpt lat="47.19643" lon="5.52384">
        <ele>240</ele>
        <time>2018-01-15T10:56:31Z</time>
      </trkpt>
      <trkpt lat="47.19638" lon="5.52383">
        <ele>240</ele>
        <time>2018-01-15T10:56:36Z</time>
      </trkpt>
      <trkpt lat="47.19631" lon="5.52393">
        <ele>239</ele>
        <time>2018-01-15T10:56:45Z</time>
      </trkpt>
      <trkpt lat="47.19628" lon="5.52399">
        <ele>239</ele>
        <time>2018-01-15T10:56:49Z</time>
      </trkpt>
      <trkpt lat="47.19625" lon="5.52413">
        <ele>238</ele>
        <time>2018-01-15T10:56:58Z</time>
      </trkpt>
      <trkpt lat="47.19625" lon="5.5242">
        <ele>237</ele>
        <time>2018-01-15T10:57:31Z</time>
      </trkpt>
      <trkpt lat="47.19623" lon="5.52427">
        <ele>237</ele>
        <time>2018-01-15T10:57:37Z</time>
      </trkpt>
    </trkseg>
  </trk>
</gpx>